Observation data for Stratford on 10/14/2019      Previous  Date       Current Mesonet Observations  Soil Data  Daily Summary Page  Observations in Plain Language
KST4 140500Z 17006KT 07/02 A30 RMK A01 T00680017  RH  070%=      5-min Rain = 0
KST4 140501Z 18006KT 07/02 A30 RMK A01 T00650016  RH  071%=      5-min Rain = 0
KST4 140502Z 18007KT 06/02 A30 RMK A01 T00640016  RH  071%=      5-min Rain = 0
KST4 140503Z 19007KT 06/02 A30 RMK A01 T00630016  RH  072%=      5-min Rain = 0
KST4 140504Z 19006KT 06/02 A30 RMK A01 T00620015  RH  072%=      5-min Rain = 0
KST4 140505Z 19005KT 06/02 A30 RMK A01 T00610015  RH  072%=      5-min Rain = 0
KST4 140506Z 19005KT 06/01 A30 RMK A01 T00600014  RH  073%=      5-min Rain = 0
KST4 140507Z 20005KT 06/01 A30 RMK A01 T00590014  RH  073%=      5-min Rain = 0
KST4 140508Z 20005KT 06/01 A30 RMK A01 T00590014  RH  073%=      5-min Rain = 0
KST4 140509Z 19004KT 06/01 A30 RMK A01 T00580014  RH  073%=      5-min Rain = 0
KST4 140510Z 19004KT 06/01 A30 RMK A01 T00570013  RH  073%=      5-min Rain = 0
KST4 140511Z 19004KT 06/01 A2999 RMK A01 T00560013  RH  073%=      5-min Rain = 0
KST4 140512Z 18004KT 06/01 A30 RMK A01 T00560012  RH  073%=      5-min Rain = 0
KST4 140513Z 18004KT 06/01 A30 RMK A01 T00570012  RH  073%=      5-min Rain = 0
KST4 140514Z 17004KT 06/01 A30 RMK A01 T00590012  RH  072%=      5-min Rain = 0
KST4 140515Z 16004KT 06/01 A2999 RMK A01 T00610012  RH  071%=      5-min Rain = 0
KST4 140516Z 16004KT 06/01 A2999 RMK A01 T00620012  RH  070%=      5-min Rain = 0
KST4 140517Z 16004KT 06/01 A30 RMK A01 T00630013  RH  070%=      5-min Rain = 0
KST4 140518Z 16003KT 07/01 A30 RMK A01 T00650013  RH  070%=      5-min Rain = 0
KST4 140519Z 16004KT 07/01 A30 RMK A01 T00660013  RH  069%=      5-min Rain = 0
KST4 140520Z 16003KT 07/01 A30 RMK A01 T00660013  RH  069%=      5-min Rain = 0
KST4 140521Z 16003KT 07/01 A2999 RMK A01 T00670013  RH  069%=      5-min Rain = 0
KST4 140522Z 16003KT 07/01 A2999 RMK A01 T00670013  RH  068%=      5-min Rain = 0
KST4 140523Z 16003KT 07/01 A2999 RMK A01 T00680013  RH  068%=      5-min Rain = 0
KST4 140524Z 16003KT 07/01 A2999 RMK A01 T00680013  RH  068%=      5-min Rain = 0
KST4 140525Z 16003KT 07/01 A2999 RMK A01 T00680013  RH  068%=      5-min Rain = 0
KST4 140526Z 16003KT 07/01 A2999 RMK A01 T00680013  RH  068%=      5-min Rain = 0
KST4 140527Z 16003KT 07/01 A2999 RMK A01 T00680013  RH  068%=      5-min Rain = 0
KST4 140528Z 16003KT 07/01 A2999 RMK A01 T00680013  RH  068%=      5-min Rain = 0
KST4 140529Z 16003KT 07/01 A2999 RMK A01 T00680014  RH  068%=      5-min Rain = 0
KST4 140530Z 16004KT 07/01 A2999 RMK A01 T00680013  RH  068%=      5-min Rain = 0
KST4 140531Z 16004KT 07/01 A2999 RMK A01 T00690014  RH  068%=      5-min Rain = 0
KST4 140532Z 16004KT 07/01 A2999 RMK A01 T00700014  RH  067%=      5-min Rain = 0
KST4 140533Z 15004KT 07/01 A2999 RMK A01 T00710014  RH  067%=      5-min Rain = 0
KST4 140534Z 15004KT 07/01 A2999 RMK A01 T00730014  RH  066%=      5-min Rain = 0
KST4 140535Z 15005KT 07/01 A2999 RMK A01 T00740014  RH  066%=      5-min Rain = 0
KST4 140536Z 15005KT 08/02 A2999 RMK A01 T00750015  RH  066%=      5-min Rain = 0
KST4 140537Z 15005KT 08/02 A2999 RMK A01 T00760015  RH  065%=      5-min Rain = 0
KST4 140538Z 15005KT 08/02 A2999 RMK A01 T00770015  RH  065%=      5-min Rain = 0
KST4 140539Z 15005KT 08/02 A2999 RMK A01 T00770016  RH  065%=      5-min Rain = 0
KST4 140540Z 15005KT 08/02 A2999 RMK A01 T00780016  RH  065%=      5-min Rain = 0
KST4 140541Z 15005KT 08/02 A2999 RMK A01 T00780016  RH  065%=      5-min Rain = 0
KST4 140542Z 15005KT 08/02 A2999 RMK A01 T00770017  RH  066%=      5-min Rain = 0
KST4 140543Z 16005KT 08/02 A2999 RMK A01 T00760018  RH  067%=      5-min Rain = 0
KST4 140544Z 16005KT 08/02 A2999 RMK A01 T00750018  RH  067%=      5-min Rain = 0
KST4 140545Z 16005KT 07/02 A2999 RMK A01 T00740020  RH  069%=      5-min Rain = 0
KST4 140546Z 17005KT 07/02 A2999 RMK A01 T00710022  RH  071%=      5-min Rain = 0
KST4 140547Z 17006KT 07/02 A2999 RMK A01 T00680021  RH  072%=      5-min Rain = 0
KST4 140548Z 16006KT 07/02 A2999 RMK A01 T00660017  RH  071%=      5-min Rain = 0
KST4 140549Z 16006KT 06/02 A2999 RMK A01 T00630017  RH  072%=      5-min Rain = 0
KST4 140550Z 16006KT 06/02 A2999 RMK A01 T00610018  RH  074%=      5-min Rain = 0
KST4 140551Z 16006KT 06/02 A2999 RMK A01 T00610020  RH  075%=      5-min Rain = 0
KST4 140552Z 16006KT 06/02 A2999 RMK A01 T00610020  RH  075%=      5-min Rain = 0
KST4 140553Z 16006KT 06/02 A2999 RMK A01 T00610021  RH  075%=      5-min Rain = 0
KST4 140554Z 16006KT 06/02 A2999 RMK A01 T00630022  RH  075%=      5-min Rain = 0
KST4 140555Z 16006KT 06/02 A2999 RMK A01 T00630021  RH  075%=      5-min Rain = 0
KST4 140556Z 16006KT 06/02 A2999 RMK A01 T00630021  RH  074%=      5-min Rain = 0
KST4 140557Z 17007KT 06/02 A2999 RMK A01 T00630020  RH  074%=      5-min Rain = 0
KST4 140558Z 17007KT 06/02 A2999 RMK A01 T00630020  RH  074%=      5-min Rain = 0
KST4 140559Z 17006KT 06/02 A2999 RMK A01 T00620019  RH  074%=      5-min Rain = 0
KST4 140600Z 17006KT 06/02 A2999 RMK A01 T00620018  RH  073%=      5-min Rain = 0
KST4 140601Z 17006KT 06/02 A2999 RMK A01 T00620017  RH  073%=      5-min Rain = 0
KST4 140602Z 16006KT 06/02 A2999 RMK A01 T00620017  RH  073%=      5-min Rain = 0
KST4 140603Z 17006KT 06/02 A2999 RMK A01 T00630017  RH  073%=      5-min Rain = 0
KST4 140604Z 17006KT 06/02 A2999 RMK A01 T00630018  RH  073%=      5-min Rain = 0
KST4 140605Z 17006KT 06/02 A2999 RMK A01 T00620018  RH  073%=      5-min Rain = 0
KST4 140606Z 17006KT 06/02 A2999 RMK A01 T00610018  RH  074%=      5-min Rain = 0
KST4 140607Z 17006KT 06/02 A2998 RMK A01 T00610018  RH  074%=      5-min Rain = 0
KST4 140608Z 17006KT 06/02 A2998 RMK A01 T00600018  RH  074%=      5-min Rain = 0
KST4 140609Z 17005KT 06/02 A2998 RMK A01 T00610018  RH  074%=      5-min Rain = 0
KST4 140610Z 17005KT 06/02 A2998 RMK A01 T00600018  RH  074%=      5-min Rain = 0
KST4 140611Z 17005KT 06/02 A2998 RMK A01 T00600018  RH  074%=      5-min Rain = 0
KST4 140612Z 16005KT 06/02 A2998 RMK A01 T00610019  RH  074%=      5-min Rain = 0
KST4 140613Z 16004KT 06/02 A2998 RMK A01 T00610019  RH  074%=      5-min Rain = 0
KST4 140614Z 16005KT 06/02 A2998 RMK A01 T00620018  RH  074%=      5-min Rain = 0
KST4 140615Z 16004KT 06/02 A2998 RMK A01 T00630018  RH  073%=      5-min Rain = 0
KST4 140616Z 16004KT 06/02 A2998 RMK A01 T00640018  RH  073%=      5-min Rain = 0
KST4 140617Z 16004KT 06/02 A2998 RMK A01 T00640019  RH  072%=      5-min Rain = 0
KST4 140618Z 16004KT 06/02 A2998 RMK A01 T00640019  RH  073%=      5-min Rain = 0
KST4 140619Z 16004KT 06/02 A2998 RMK A01 T00640019  RH  073%=      5-min Rain = 0
KST4 140620Z 16004KT 06/02 A2998 RMK A01 T00640019  RH  073%=      5-min Rain = 0
KST4 140621Z 17005KT 06/02 A2998 RMK A01 T00640019  RH  073%=      5-min Rain = 0
KST4 140622Z 17004KT 06/02 A2998 RMK A01 T00620017  RH  073%=      5-min Rain = 0
KST4 140623Z 17004KT 06/02 A2998 RMK A01 T00610017  RH  073%=      5-min Rain = 0
KST4 140624Z 17004KT 06/02 A2998 RMK A01 T00600016  RH  073%=      5-min Rain = 0
KST4 140625Z 18004KT 06/02 A2998 RMK A01 T00590015  RH  073%=      5-min Rain = 0
KST4 140626Z 18004KT 06/01 A2998 RMK A01 T00590013  RH  073%=      5-min Rain = 0
KST4 140627Z 18004KT 06/01 A2998 RMK A01 T00580012  RH  072%=      5-min Rain = 0
KST4 140628Z 18004KT 06/01 A2997 RMK A01 T00580012  RH  072%=      5-min Rain = 0
KST4 140629Z 18004KT 06/01 A2997 RMK A01 T00590011  RH  072%=      5-min Rain = 0
KST4 140630Z 19004KT 06/01 A2997 RMK A01 T00590011  RH  072%=      5-min Rain = 0
KST4 140631Z 19004KT 06/01 A2997 RMK A01 T00580012  RH  072%=      5-min Rain = 0
KST4 140632Z 19004KT 06/01 A2997 RMK A01 T00580011  RH  072%=      5-min Rain = 0
KST4 140633Z 19004KT 06/01 A2997 RMK A01 T00580011  RH  072%=      5-min Rain = 0
KST4 140634Z 19004KT 06/01 A2997 RMK A01 T00570010  RH  072%=      5-min Rain = 0
KST4 140635Z 20004KT 06/01 A2997 RMK A01 T00560011  RH  073%=      5-min Rain = 0
KST4 140636Z 20004KT 06/01 A2998 RMK A01 T00560012  RH  073%=      5-min Rain = 0
KST4 140637Z 20005KT 06/01 A2998 RMK A01 T00550011  RH  073%=      5-min Rain = 0
KST4 140638Z 21005KT 06/01 A2998 RMK A01 T00550011  RH  073%=      5-min Rain = 0
KST4 140639Z 21005KT 06/01 A2998 RMK A01 T00550010  RH  073%=      5-min Rain = 0
KST4 140640Z 21005KT 05/01 A2997 RMK A01 T00540010  RH  073%=      5-min Rain = 0
KST4 140641Z 21004KT 05/01 A2997 RMK A01 T00520010  RH  074%=      5-min Rain = 0
KST4 140642Z 21004KT 05/01 A2997 RMK A01 T00520011  RH  075%=      5-min Rain = 0
KST4 140643Z 21004KT 05/01 A2997 RMK A01 T00520011  RH  075%=      5-min Rain = 0
KST4 140644Z 21004KT 05/01 A2997 RMK A01 T00540012  RH  075%=      5-min Rain = 0
KST4 140645Z 21004KT 05/01 A2997 RMK A01 T00540010  RH  073%=      5-min Rain = 0
KST4 140646Z 21004KT 05/01 A2997 RMK A01 T00520009  RH  074%=      5-min Rain = 0
KST4 140647Z 21004KT 05/01 A2997 RMK A01 T00510009  RH  074%=      5-min Rain = 0
KST4 140648Z 21004KT 05/01 A2997 RMK A01 T00510010  RH  075%=      5-min Rain = 0
KST4 140649Z 21004KT 05/01 A2997 RMK A01 T00500009  RH  075%=      5-min Rain = 0
KST4 140650Z 21004KT 05/01 A2997 RMK A01 T00480007  RH  074%=      5-min Rain = 0
KST4 140651Z 22003KT 05/00 A2997 RMK A01 T00450004  RH  075%=      5-min Rain = 0
KST4 140652Z 23002KT 04/00 A2997 RMK A01 T00420002  RH  075%=      5-min Rain = 0
KST4 140653Z 24003KT 04/M00 A2997 RMK A01 T00371003  RH  075%=      5-min Rain = 0
KST4 140654Z 24002KT 03/M01 A2997 RMK A01 T00321005  RH  077%=      5-min Rain = 0
KST4 140655Z 24002KT 03/M00 A2997 RMK A01 T00301002  RH  080%=      5-min Rain = 0
KST4 140656Z 24002KT 03/00 A2997 RMK A01 T00290000  RH  081%=      5-min Rain = 0
KST4 140657Z 24002KT 03/00 A2997 RMK A01 T00290001  RH  082%=      5-min Rain = 0
KST4 140658Z 24001KT 03/00 A2997 RMK A01 T00290002  RH  082%=      5-min Rain = 0
KST4 140659Z 25002KT 03/01 A2997 RMK A01 T00320005  RH  082%=      5-min Rain = 0
KST4 140700Z 26001KT 03/01 A2997 RMK A01 T00340005  RH  081%=      5-min Rain = 0
KST4 140701Z 26002KT 04/00 A2997 RMK A01 T00350004  RH  080%=      5-min Rain = 0
KST4 140702Z 26002KT 04/00 A2997 RMK A01 T00350004  RH  080%=      5-min Rain = 0
KST4 140703Z 26002KT 04/00 A2997 RMK A01 T00350004  RH  080%=      5-min Rain = 0
KST4 140704Z 24001KT 04/00 A2997 RMK A01 T00360004  RH  080%=      5-min Rain = 0
KST4 140705Z 24001KT 04/01 A2997 RMK A01 T00370005  RH  080%=      5-min Rain = 0
KST4 140706Z 23001KT 04/01 A2997 RMK A01 T00370005  RH  079%=      5-min Rain = 0
KST4 140707Z 23002KT 04/01 A2997 RMK A01 T00380005  RH  079%=      5-min Rain = 0
KST4 140708Z 22002KT 04/01 A2997 RMK A01 T00380005  RH  079%=      5-min Rain = 0
KST4 140709Z 21002KT 04/01 A2997 RMK A01 T00390005  RH  078%=      5-min Rain = 0
KST4 140710Z 21002KT 04/01 A2997 RMK A01 T00390005  RH  078%=      5-min Rain = 0
KST4 140711Z 21002KT 04/01 A2997 RMK A01 T00400006  RH  078%=      5-min Rain = 0
KST4 140712Z 20002KT 04/01 A2997 RMK A01 T00430008  RH  078%=      5-min Rain = 0
KST4 140713Z 20003KT 05/01 A2997 RMK A01 T00450009  RH  077%=      5-min Rain = 0
KST4 140714Z 20003KT 05/01 A2997 RMK A01 T00470008  RH  076%=      5-min Rain = 0
KST4 140715Z 20003KT 05/01 A2997 RMK A01 T00490008  RH  075%=      5-min Rain = 0
KST4 140716Z 20003KT 05/01 A2997 RMK A01 T00490006  RH  074%=      5-min Rain = 0
KST4 140717Z 19003KT 05/01 A2996 RMK A01 T00480006  RH  074%=      5-min Rain = 0
KST4 140718Z 19003KT 05/01 A2996 RMK A01 T00470005  RH  074%=      5-min Rain = 0
KST4 140719Z 19003KT 05/01 A2996 RMK A01 T00460005  RH  075%=      5-min Rain = 0
KST4 140720Z 19003KT 05/01 A2996 RMK A01 T00460005  RH  075%=      5-min Rain = 0
KST4 140721Z 19003KT 05/01 A2996 RMK A01 T00450005  RH  075%=      5-min Rain = 0
KST4 140722Z 19003KT 05/01 A2996 RMK A01 T00450005  RH  075%=      5-min Rain = 0
KST4 140723Z 19003KT 05/01 A2996 RMK A01 T00450005  RH  075%=      5-min Rain = 0
KST4 140724Z 19003KT 05/01 A2997 RMK A01 T00450005  RH  075%=      5-min Rain = 0
KST4 140725Z 19003KT 05/01 A2997 RMK A01 T00460005  RH  075%=      5-min Rain = 0
KST4 140726Z 19004KT 05/01 A2997 RMK A01 T00460006  RH  075%=      5-min Rain = 0
KST4 140727Z 19004KT 05/01 A2997 RMK A01 T00490007  RH  074%=      5-min Rain = 0
KST4 140728Z 19003KT 05/01 A2997 RMK A01 T00500006  RH  073%=      5-min Rain = 0
KST4 140729Z 19004KT 05/01 A2997 RMK A01 T00500006  RH  073%=      5-min Rain = 0
KST4 140730Z 19003KT 05/01 A2997 RMK A01 T00510007  RH  073%=      5-min Rain = 0
KST4 140731Z 18004KT 05/01 A2997 RMK A01 T00520007  RH  073%=      5-min Rain = 0
KST4 140732Z 18004KT 05/01 A2997 RMK A01 T00530008  RH  073%=      5-min Rain = 0
KST4 140733Z 17004KT 05/01 A2997 RMK A01 T00530008  RH  072%=      5-min Rain = 0
KST4 140734Z 17004KT 05/01 A2997 RMK A01 T00540009  RH  073%=      5-min Rain = 0
KST4 140735Z 17004KT 06/01 A2997 RMK A01 T00560010  RH  072%=      5-min Rain = 0
KST4 140736Z 17004KT 06/01 A2996 RMK A01 T00590010  RH  071%=      5-min Rain = 0
KST4 140737Z 16004KT 06/01 A2996 RMK A01 T00610010  RH  070%=      5-min Rain = 0
KST4 140738Z 16005KT 06/01 A2996 RMK A01 T00620011  RH  069%=      5-min Rain = 0
KST4 140739Z 16005KT 06/01 A2996 RMK A01 T00640011  RH  069%=      5-min Rain = 0
KST4 140740Z 16005KT 07/01 A2996 RMK A01 T00660012  RH  068%=      5-min Rain = 0
KST4 140741Z 16005KT 07/01 A2996 RMK A01 T00680012  RH  068%=      5-min Rain = 0
KST4 140742Z 16005KT 07/01 A2996 RMK A01 T00680012  RH  067%=      5-min Rain = 0
KST4 140743Z 16005KT 07/01 A2996 RMK A01 T00690012  RH  067%=      5-min Rain = 0
KST4 140744Z 16005KT 07/01 A2996 RMK A01 T00690012  RH  067%=      5-min Rain = 0
KST4 140745Z 16005KT 07/01 A2996 RMK A01 T00690012  RH  067%=      5-min Rain = 0
KST4 140746Z 16005KT 07/01 A2996 RMK A01 T00690012  RH  067%=      5-min Rain = 0
KST4 140747Z 16006KT 07/01 A2996 RMK A01 T00690013  RH  067%=      5-min Rain = 0
KST4 140748Z 15006KT 07/01 A2996 RMK A01 T00690012  RH  067%=      5-min Rain = 0
KST4 140749Z 15006KT 07/01 A2996 RMK A01 T00680012  RH  068%=      5-min Rain = 0
KST4 140750Z 15006KT 07/01 A2996 RMK A01 T00680012  RH  068%=      5-min Rain = 0
KST4 140751Z 15007KT 07/01 A2996 RMK A01 T00680012  RH  067%=      5-min Rain = 0
KST4 140752Z 15007KT 07/01 A2996 RMK A01 T00690011  RH  067%=      5-min Rain = 0
KST4 140753Z 15007KT 07/01 A2996 RMK A01 T00690011  RH  067%=      5-min Rain = 0
KST4 140754Z 15007KT 07/01 A2996 RMK A01 T00690011  RH  067%=      5-min Rain = 0
KST4 140755Z 15007KT 07/01 A2996 RMK A01 T00690011  RH  066%=      5-min Rain = 0
KST4 140756Z 15007KT 07/01 A2996 RMK A01 T00690011  RH  066%=      5-min Rain = 0
KST4 140757Z 15007KT 07/01 A2996 RMK A01 T00700011  RH  066%=      5-min Rain = 0
KST4 140758Z 15007KT 07/01 A2996 RMK A01 T00700011  RH  066%=      5-min Rain = 0
KST4 140759Z 15007KT 07/01 A2996 RMK A01 T00710012  RH  066%=      5-min Rain = 0
KST4 140800Z 15007KT 07/01 A2996 RMK A01 T00720012  RH  066%=      5-min Rain = 0
KST4 140801Z 15007KT 07/01 A2996 RMK A01 T00730013  RH  066%=      5-min Rain = 0
KST4 140802Z 15007KT 08/01 A2996 RMK A01 T00750014  RH  065%=      5-min Rain = 0
KST4 140803Z 15007KT 08/01 A2996 RMK A01 T00760014  RH  065%=      5-min Rain = 0
KST4 140804Z 15006KT 08/01 A2996 RMK A01 T00770014  RH  064%=      5-min Rain = 0
KST4 140805Z 15006KT 08/01 A2996 RMK A01 T00770014  RH  064%=      5-min Rain = 0
KST4 140806Z 15007KT 08/01 A2996 RMK A01 T00770014  RH  064%=      5-min Rain = 0
KST4 140807Z 16006KT 08/01 A2996 RMK A01 T00770013  RH  064%=      5-min Rain = 0
KST4 140808Z 17006KT 08/01 A2996 RMK A01 T00770013  RH  064%=      5-min Rain = 0
KST4 140809Z 17006KT 08/01 A2996 RMK A01 T00760013  RH  064%=      5-min Rain = 0
KST4 140810Z 16006KT 08/01 A2996 RMK A01 T00750012  RH  064%=      5-min Rain = 0
KST4 140811Z 16006KT 08/01 A2996 RMK A01 T00760012  RH  064%=      5-min Rain = 0
KST4 140812Z 16006KT 08/01 A2996 RMK A01 T00770013  RH  064%=      5-min Rain = 0
KST4 140813Z 16006KT 08/01 A2995 RMK A01 T00790013  RH  063%=      5-min Rain = 0
KST4 140814Z 16007KT 08/01 A2995 RMK A01 T00800013  RH  063%=      5-min Rain = 0
KST4 140815Z 15007KT 08/02 A2995 RMK A01 T00820015  RH  062%=      5-min Rain = 0
KST4 140816Z 16007KT 08/02 A2995 RMK A01 T00840016  RH  062%=      5-min Rain = 0
KST4 140817Z 16007KT 09/02 A2995 RMK A01 T00850016  RH  062%=      5-min Rain = 0
KST4 140818Z 16007KT 09/02 A2995 RMK A01 T00860016  RH  061%=      5-min Rain = 0
KST4 140819Z 16006KT 09/02 A2995 RMK A01 T00860016  RH  061%=      5-min Rain = 0
KST4 140820Z 16006KT 09/02 A2995 RMK A01 T00860016  RH  062%=      5-min Rain = 0
KST4 140821Z 16006KT 09/02 A2995 RMK A01 T00850015  RH  062%=      5-min Rain = 0
KST4 140822Z 16006KT 08/02 A2995 RMK A01 T00840015  RH  062%=      5-min Rain = 0
KST4 140823Z 16006KT 08/02 A2995 RMK A01 T00820015  RH  063%=      5-min Rain = 0
KST4 140824Z 16005KT 08/02 A2995 RMK A01 T00810015  RH  063%=      5-min Rain = 0
KST4 140825Z 16006KT 08/02 A2995 RMK A01 T00810015  RH  063%=      5-min Rain = 0
KST4 140826Z 16006KT 08/01 A2995 RMK A01 T00800014  RH  063%=      5-min Rain = 0
KST4 140827Z 17006KT 08/01 A2995 RMK A01 T00800013  RH  063%=      5-min Rain = 0
KST4 140828Z 17006KT 08/01 A2995 RMK A01 T00800013  RH  063%=      5-min Rain = 0
KST4 140829Z 17006KT 08/01 A2995 RMK A01 T00790014  RH  063%=      5-min Rain = 0
KST4 140830Z 17006KT 08/01 A2995 RMK A01 T00780014  RH  064%=      5-min Rain = 0
KST4 140831Z 17006KT 08/02 A2995 RMK A01 T00760015  RH  065%=      5-min Rain = 0
KST4 140832Z 18006KT 07/02 A2995 RMK A01 T00740018  RH  068%=      5-min Rain = 0
KST4 140833Z 17006KT 07/02 A2995 RMK A01 T00720019  RH  069%=      5-min Rain = 0
KST4 140834Z 18006KT 07/02 A2995 RMK A01 T00700019  RH  070%=      5-min Rain = 0
KST4 140835Z 17006KT 07/02 A2995 RMK A01 T00700019  RH  070%=      5-min Rain = 0
KST4 140836Z 17006KT 07/02 A2995 RMK A01 T00700017  RH  069%=      5-min Rain = 0
KST4 140837Z 18006KT 07/02 A2995 RMK A01 T00680016  RH  069%=      5-min Rain = 0
KST4 140838Z 18005KT 07/02 A2995 RMK A01 T00670016  RH  070%=      5-min Rain = 0
KST4 140839Z 19005KT 07/02 A2995 RMK A01 T00660017  RH  071%=      5-min Rain = 0
KST4 140840Z 19005KT 07/02 A2995 RMK A01 T00660017  RH  071%=      5-min Rain = 0
KST4 140841Z 18005KT 07/02 A2995 RMK A01 T00660016  RH  071%=      5-min Rain = 0
KST4 140842Z 19005KT 07/02 A2995 RMK A01 T00650015  RH  070%=      5-min Rain = 0
KST4 140843Z 20005KT 07/02 A2995 RMK A01 T00650015  RH  070%=      5-min Rain = 0
KST4 140844Z 21005KT 06/01 A2995 RMK A01 T00640013  RH  070%=      5-min Rain = 0
KST4 140845Z 21005KT 06/01 A2995 RMK A01 T00630011  RH  070%=      5-min Rain = 0
KST4 140846Z 22005KT 06/01 A2995 RMK A01 T00610009  RH  069%=      5-min Rain = 0
KST4 140847Z 22005KT 06/01 A2995 RMK A01 T00600009  RH  070%=      5-min Rain = 0
KST4 140848Z 23004KT 06/01 A2994 RMK A01 T00590009  RH  070%=      5-min Rain = 0
KST4 140849Z 24005KT 06/01 A2994 RMK A01 T00590010  RH  071%=      5-min Rain = 0
KST4 140850Z 24005KT 06/01 A2994 RMK A01 T00580010  RH  071%=      5-min Rain = 0
KST4 140851Z 24005KT 06/01 A2994 RMK A01 T00580009  RH  071%=      5-min Rain = 0
KST4 140852Z 25005KT 06/01 A2994 RMK A01 T00560007  RH  071%=      5-min Rain = 0
KST4 140853Z 25004KT 05/00 A2994 RMK A01 T00520003  RH  071%=      5-min Rain = 0
KST4 140854Z 26004KT 05/00 A2994 RMK A01 T00460000  RH  072%=      5-min Rain = 0
KST4 140855Z 26004KT 04/M00 A2994 RMK A01 T00421001  RH  074%=      5-min Rain = 0
KST4 140856Z 26004KT 04/M00 A2995 RMK A01 T00381001  RH  075%=      5-min Rain = 0
KST4 140857Z 26005KT 04/M00 A2994 RMK A01 T00361001  RH  077%=      5-min Rain = 0
KST4 140858Z 25005KT 04/M00 A2994 RMK A01 T00351001  RH  077%=      5-min Rain = 0
KST4 140859Z 25005KT 03/M00 A2994 RMK A01 T00331002  RH  078%=      5-min Rain = 0
KST4 140900Z 25006KT 03/M00 A2994 RMK A01 T00311002  RH  079%=      5-min Rain = 0
KST4 140901Z 26006KT 03/M00 A2995 RMK A01 T00301003  RH  079%=      5-min Rain = 0
KST4 140902Z 26007KT 03/M00 A2995 RMK A01 T00291003  RH  080%=      5-min Rain = 0
KST4 140903Z 27007KT 03/M00 A2995 RMK A01 T00271003  RH  080%=      5-min Rain = 0
KST4 140904Z 27007KT 03/M00 A2995 RMK A01 T00261003  RH  081%=      5-min Rain = 0
KST4 140905Z 28010KT 03/M00 A2995 RMK A01 T00251004  RH  081%=      5-min Rain = 0
KST4 140906Z 29010KT 02/M00 A2995 RMK A01 T00241004  RH  082%=      5-min Rain = 0
KST4 140907Z 29009KT 02/M00 A2995 RMK A01 T00241003  RH  083%=      5-min Rain = 0
KST4 140908Z 29009KT 02/M00 A2995 RMK A01 T00241002  RH  083%=      5-min Rain = 0
KST4 140909Z 28009KT 03/00 A2995 RMK A01 T002500-0  RH  083%=      5-min Rain = 0
KST4 140910Z 28008KT 03/00 A2995 RMK A01 T00260001  RH  083%=      5-min Rain = 0
KST4 140911Z 29008KT 03/00 A2995 RMK A01 T00270002  RH  083%=      5-min Rain = 0
KST4 140912Z 29009KT 03/00 A2995 RMK A01 T00280002  RH  083%=      5-min Rain = 0
KST4 140913Z 28009KT 03/00 A2995 RMK A01 T00290002  RH  083%=      5-min Rain = 0
KST4 140914Z 29009KT 03/00 A2995 RMK A01 T00290003  RH  083%=      5-min Rain = 0
KST4 140915Z 29009KT 03/00 A2995 RMK A01 T00300003  RH  083%=      5-min Rain = 0
KST4 140916Z 28008KT 03/00 A2995 RMK A01 T00300004  RH  083%=      5-min Rain = 0
KST4 140917Z 27004KT 03/01 A2995 RMK A01 T00320006  RH  083%=      5-min Rain = 0
KST4 140918Z 27008KT 03/01 A2995 RMK A01 T00340006  RH  082%=      5-min Rain = 0
KST4 140919Z 27007KT 04/01 A2995 RMK A01 T00400010  RH  081%=      5-min Rain = 0
KST4 140920Z 28008KT 04/01 A2995 RMK A01 T00430011  RH  079%=      5-min Rain = 0
KST4 140921Z 28008KT 05/01 A2995 RMK A01 T00450009  RH  078%=      5-min Rain = 0
KST4 140922Z 28007KT 04/01 A2994 RMK A01 T00430007  RH  077%=      5-min Rain = 0
KST4 140923Z 27006KT 04/01 A2994 RMK A01 T00410006  RH  078%=      5-min Rain = 0
KST4 140924Z 28007KT 04/01 A2994 RMK A01 T00400006  RH  078%=      5-min Rain = 0
KST4 140925Z 27006KT 04/01 A2994 RMK A01 T00400006  RH  078%=      5-min Rain = 0
KST4 140926Z 26006KT 04/01 A2994 RMK A01 T00400006  RH  078%=      5-min Rain = 0
KST4 140927Z 26004KT 04/01 A2994 RMK A01 T00400006  RH  078%=      5-min Rain = 0
KST4 140928Z 25004KT 04/01 A2994 RMK A01 T00400007  RH  079%=      5-min Rain = 0
KST4 140929Z 25005KT 04/01 A2994 RMK A01 T00400008  RH  080%=      5-min Rain = 0
KST4 140930Z 25005KT 04/01 A2994 RMK A01 T00440010  RH  079%=      5-min Rain = 0
KST4 140931Z 25005KT 05/01 A2994 RMK A01 T00460009  RH  077%=      5-min Rain = 0
KST4 140932Z 25005KT 05/01 A2994 RMK A01 T00470009  RH  076%=      5-min Rain = 0
KST4 140933Z 26005KT 05/01 A2995 RMK A01 T00470008  RH  076%=      5-min Rain = 0
KST4 140934Z 25005KT 05/01 A2994 RMK A01 T00460007  RH  076%=      5-min Rain = 0
KST4 140935Z 25005KT 04/01 A2994 RMK A01 T00440006  RH  076%=      5-min Rain = 0
KST4 140936Z 25005KT 04/01 A2995 RMK A01 T00440007  RH  077%=      5-min Rain = 0
KST4 140937Z 26005KT 05/01 A2995 RMK A01 T00460009  RH  077%=      5-min Rain = 0
KST4 140938Z 27005KT 05/01 A2995 RMK A01 T00490009  RH  075%=      5-min Rain = 0
KST4 140939Z 27004KT 05/01 A2995 RMK A01 T00490007  RH  074%=      5-min Rain = 0
KST4 140940Z 27004KT 05/01 A2995 RMK A01 T00470005  RH  074%=      5-min Rain = 0
KST4 140941Z 27005KT 04/00 A2995 RMK A01 T00440004  RH  075%=      5-min Rain = 0
KST4 140942Z 27006KT 04/00 A2995 RMK A01 T00430004  RH  076%=      5-min Rain = 0
KST4 140943Z 28007KT 04/01 A2995 RMK A01 T00430005  RH  077%=      5-min Rain = 0
KST4 140944Z 28008KT 04/01 A2995 RMK A01 T00430005  RH  077%=      5-min Rain = 0
KST4 140945Z 29008KT 04/01 A2994 RMK A01 T00430006  RH  077%=      5-min Rain = 0
KST4 140946Z 29008KT 04/01 A2994 RMK A01 T00430006  RH  077%=      5-min Rain = 0
KST4 140947Z 29008KT 04/01 A2994 RMK A01 T00420005  RH  077%=      5-min Rain = 0
KST4 140948Z 29009KT 04/00 A2994 RMK A01 T00390004  RH  078%=      5-min Rain = 0
KST4 140949Z 29010KT 04/00 A2994 RMK A01 T00370003  RH  078%=      5-min Rain = 0
KST4 140950Z 29010KT 04/00 A2994 RMK A01 T00350003  RH  079%=      5-min Rain = 0
KST4 140951Z 29009KT 03/00 A2995 RMK A01 T00330002  RH  080%=      5-min Rain = 0
KST4 140952Z 29010KT 03/00 A2995 RMK A01 T00320002  RH  081%=      5-min Rain = 0
KST4 140953Z 29010KT 03/00 A2995 RMK A01 T00320002  RH  081%=      5-min Rain = 0
KST4 140954Z 29010KT 03/00 A2995 RMK A01 T00310002  RH  081%=      5-min Rain = 0
KST4 140955Z 29010KT 03/00 A2995 RMK A01 T00300002  RH  082%=      5-min Rain = 0
KST4 140956Z 29009KT 03/00 A2995 RMK A01 T00300002  RH  082%=      5-min Rain = 0
KST4 140957Z 29009KT 03/00 A2994 RMK A01 T00300002  RH  082%=      5-min Rain = 0
KST4 140958Z 30010KT 03/00 A2994 RMK A01 T00300003  RH  082%=      5-min Rain = 0
KST4 140959Z 30010KT 03/00 A2994 RMK A01 T00310003  RH  082%=      5-min Rain = 0
KST4 141000Z 30010KT 03/00 A2994 RMK A01 T00320003  RH  081%=      5-min Rain = 0
KST4 141001Z 30009KT 03/00 A2994 RMK A01 T00320003  RH  081%=      5-min Rain = 0
KST4 141002Z 30009KT 03/00 A2994 RMK A01 T00330003  RH  081%=      5-min Rain = 0
KST4 141003Z 30009KT 03/00 A2994 RMK A01 T00320002  RH  081%=      5-min Rain = 0
KST4 141004Z 30009KT 03/00 A2994 RMK A01 T00320002  RH  081%=      5-min Rain = 0
KST4 141005Z 30009KT 03/00 A2994 RMK A01 T00310001  RH  081%=      5-min Rain = 0
KST4 141006Z 30010KT 03/00 A2994 RMK A01 T00310001  RH  081%=      5-min Rain = 0
KST4 141007Z 30010KT 03/00 A2994 RMK A01 T00300001  RH  081%=      5-min Rain = 0
KST4 141008Z 30010KT 03/00 A2994 RMK A01 T00300001  RH  081%=      5-min Rain = 0
KST4 141009Z 29010KT 03/00 A2994 RMK A01 T00290000  RH  081%=      5-min Rain = 0
KST4 141010Z 29010KT 03/00 A2994 RMK A01 T00300001  RH  081%=      5-min Rain = 0
KST4 141011Z 30010KT 03/00 A2994 RMK A01 T00290000  RH  081%=      5-min Rain = 0
KST4 141012Z 30010KT 03/00 A2994 RMK A01 T00300000  RH  081%=      5-min Rain = 0
KST4 141013Z 30011KT 03/00 A2994 RMK A01 T00290000  RH  081%=      5-min Rain = 0
KST4 141014Z 30010KT 03/00 A2994 RMK A01 T002900-0  RH  081%=      5-min Rain = 0
KST4 141015Z 30010KT 03/00 A2994 RMK A01 T002900-0  RH  081%=      5-min Rain = 0
KST4 141016Z 30009KT 03/00 A2994 RMK A01 T002900-0  RH  081%=      5-min Rain = 0
KST4 141017Z 30009KT 03/M00 A2994 RMK A01 T00281001  RH  081%=      5-min Rain = 0
KST4 141018Z 30009KT 03/M00 A2994 RMK A01 T00281001  RH  081%=      5-min Rain = 0
KST4 141019Z 30009KT 03/M00 A2994 RMK A01 T00281001  RH  081%=      5-min Rain = 0
KST4 141020Z 30008KT 03/M00 A2994 RMK A01 T00281001  RH  081%=      5-min Rain = 0
KST4 141021Z 30009KT 03/M00 A2994 RMK A01 T00281001  RH  081%=      5-min Rain = 0
KST4 141022Z 30009KT 03/M00 A2994 RMK A01 T00281001  RH  081%=      5-min Rain = 0
KST4 141023Z 30008KT 03/M00 A2994 RMK A01 T00271001  RH  082%=      5-min Rain = 0
KST4 141024Z 30007KT 03/M00 A2994 RMK A01 T00281001  RH  082%=      5-min Rain = 0
KST4 141025Z 30007KT 03/M00 A2994 RMK A01 T00271001  RH  082%=      5-min Rain = 0
KST4 141026Z 31007KT 03/M00 A2994 RMK A01 T00271001  RH  082%=      5-min Rain = 0
KST4 141027Z 31007KT 03/00 A2994 RMK A01 T002800-0  RH  082%=      5-min Rain = 0
KST4 141028Z 30006KT 03/M00 A2994 RMK A01 T00281001  RH  082%=      5-min Rain = 0
KST4 141029Z 30005KT 03/M00 A2994 RMK A01 T00281001  RH  082%=      5-min Rain = 0
KST4 141030Z 30005KT 03/M00 A2994 RMK A01 T00271001  RH  082%=      5-min Rain = 0
KST4 141031Z 30005KT 03/M00 A2994 RMK A01 T00261002  RH  082%=      5-min Rain = 0
KST4 141032Z 30006KT 03/M00 A2994 RMK A01 T00251002  RH  082%=      5-min Rain = 0
KST4 141033Z 30006KT 02/M00 A2993 RMK A01 T00241003  RH  083%=      5-min Rain = 0
KST4 141034Z 30006KT 02/M00 A2993 RMK A01 T00231003  RH  083%=      5-min Rain = 0
KST4 141035Z 30006KT 02/M00 A2993 RMK A01 T00221004  RH  083%=      5-min Rain = 0
KST4 141036Z 30006KT 02/M00 A2993 RMK A01 T00211004  RH  083%=      5-min Rain = 0
KST4 141037Z 30006KT 02/M01 A2993 RMK A01 T00201005  RH  084%=      5-min Rain = 0
KST4 141038Z 30006KT 02/M01 A2993 RMK A01 T00191006  RH  084%=      5-min Rain = 0
KST4 141039Z 30006KT 02/M01 A2993 RMK A01 T00181006  RH  084%=      5-min Rain = 0
KST4 141040Z 30006KT 02/M01 A2993 RMK A01 T00171006  RH  085%=      5-min Rain = 0
KST4 141041Z 30006KT 02/M01 A2993 RMK A01 T00171005  RH  085%=      5-min Rain = 0
KST4 141042Z 30006KT 02/M01 A2993 RMK A01 T00171005  RH  085%=      5-min Rain = 0
KST4 141043Z 30007KT 02/M01 A2993 RMK A01 T00171005  RH  085%=      5-min Rain = 0
KST4 141044Z 30007KT 02/M01 A2993 RMK A01 T00171005  RH  085%=      5-min Rain = 0
KST4 141045Z 30007KT 02/M01 A2993 RMK A01 T00171006  RH  085%=      5-min Rain = 0
KST4 141046Z 30007KT 02/M01 A2993 RMK A01 T00171007  RH  085%=      5-min Rain = 0
KST4 141047Z 30007KT 02/M01 A2993 RMK A01 T00161007  RH  085%=      5-min Rain = 0
KST4 141048Z 30007KT 02/M01 A2993 RMK A01 T00161007  RH  085%=      5-min Rain = 0
KST4 141049Z 30007KT 02/M01 A2993 RMK A01 T00161007  RH  085%=      5-min Rain = 0
KST4 141050Z 30007KT 02/M01 A2993 RMK A01 T00151007  RH  085%=      5-min Rain = 0
KST4 141051Z 30007KT 02/M01 A2993 RMK A01 T00151007  RH  085%=      5-min Rain = 0
KST4 141052Z 30007KT 02/M01 A2993 RMK A01 T00151007  RH  085%=      5-min Rain = 0
KST4 141053Z 30007KT 02/M01 A2993 RMK A01 T00151007  RH  085%=      5-min Rain = 0
KST4 141054Z 30007KT 02/M01 A2993 RMK A01 T00151007  RH  085%=      5-min Rain = 0
KST4 141055Z 30007KT 02/M01 A2993 RMK A01 T00151007  RH  085%=      5-min Rain = 0
KST4 141056Z 30007KT 02/M01 A2993 RMK A01 T00151007  RH  086%=      5-min Rain = 0
KST4 141057Z 29007KT 02/M01 A2993 RMK A01 T00151006  RH  086%=      5-min Rain = 0
KST4 141058Z 29007KT 02/M01 A2993 RMK A01 T00161006  RH  086%=      5-min Rain = 0
KST4 141059Z 29006KT 02/M01 A2993 RMK A01 T00171005  RH  086%=      5-min Rain = 0
KST4 141100Z 30007KT 02/M01 A2993 RMK A01 T00171005  RH  085%=      5-min Rain = 0
KST4 141101Z 30008KT 02/M01 A2993 RMK A01 T00181006  RH  085%=      5-min Rain = 0
KST4 141102Z 30008KT 02/M01 A2993 RMK A01 T00171007  RH  084%=      5-min Rain = 0
KST4 141103Z 29009KT 02/M01 A2994 RMK A01 T00171008  RH  084%=      5-min Rain = 0
KST4 141104Z 29008KT 02/M01 A2994 RMK A01 T00151009  RH  084%=      5-min Rain = 0
KST4 141105Z 29007KT 02/M01 A2993 RMK A01 T00151009  RH  085%=      5-min Rain = 0
KST4 141106Z 28007KT 01/M01 A2994 RMK A01 T00141008  RH  085%=      5-min Rain = 0
KST4 141107Z 28007KT 01/M01 A2994 RMK A01 T00131009  RH  085%=      5-min Rain = 0
KST4 141108Z 28007KT 01/M01 A2994 RMK A01 T00121010  RH  085%=      5-min Rain = 0
KST4 141109Z 28007KT 01/M01 A2994 RMK A01 T00111011  RH  086%=      5-min Rain = 0
KST4 141110Z 27005KT 01/M01 A2994 RMK A01 T00101011  RH  086%=      5-min Rain = 0
KST4 141111Z 27006KT 01/M01 A2994 RMK A01 T00091010  RH  087%=      5-min Rain = 0
KST4 141112Z 26007KT 01/M01 A2994 RMK A01 T00101009  RH  088%=      5-min Rain = 0
KST4 141113Z 26006KT 01/M01 A2994 RMK A01 T00111007  RH  087%=      5-min Rain = 0
KST4 141114Z 26005KT 01/M01 A2994 RMK A01 T00121007  RH  087%=      5-min Rain = 0
KST4 141115Z 26005KT 01/M01 A2994 RMK A01 T00121007  RH  087%=      5-min Rain = 0
KST4 141116Z 26006KT 01/M01 A2994 RMK A01 T00111008  RH  087%=      5-min Rain = 0
KST4 141117Z 26006KT 01/M01 A2994 RMK A01 T00101009  RH  087%=      5-min Rain = 0
KST4 141118Z 26006KT 01/M01 A2994 RMK A01 T00091009  RH  088%=      5-min Rain = 0
KST4 141119Z 27006KT 01/M01 A2994 RMK A01 T00081009  RH  088%=      5-min Rain = 0
KST4 141120Z 27006KT 01/M01 A2994 RMK A01 T00091008  RH  089%=      5-min Rain = 0
KST4 141121Z 27007KT 01/M01 A2994 RMK A01 T00091008  RH  089%=      5-min Rain = 0
KST4 141122Z 27007KT 01/M01 A2994 RMK A01 T00091008  RH  089%=      5-min Rain = 0
KST4 141123Z 27007KT 01/M01 A2994 RMK A01 T00091008  RH  089%=      5-min Rain = 0
KST4 141124Z 27008KT 01/M01 A2994 RMK A01 T00091007  RH  089%=      5-min Rain = 0
KST4 141125Z 26008KT 01/M01 A2994 RMK A01 T00101007  RH  088%=      5-min Rain = 0
KST4 141126Z 27008KT 01/M01 A2994 RMK A01 T00121006  RH  088%=      5-min Rain = 0
KST4 141127Z 27008KT 01/M01 A2994 RMK A01 T00131005  RH  088%=      5-min Rain = 0
KST4 141128Z 26008KT 01/M00 A2994 RMK A01 T00141004  RH  088%=      5-min Rain = 0
KST4 141129Z 26008KT 02/M00 A2994 RMK A01 T00151004  RH  087%=      5-min Rain = 0
KST4 141130Z 26008KT 02/M00 A2994 RMK A01 T00161004  RH  086%=      5-min Rain = 0
KST4 141131Z 27008KT 02/M00 A2994 RMK A01 T00171004  RH  086%=      5-min Rain = 0
KST4 141132Z 27008KT 02/M00 A2994 RMK A01 T00171004  RH  086%=      5-min Rain = 0
KST4 141133Z 27008KT 02/M00 A2994 RMK A01 T00171004  RH  086%=      5-min Rain = 0
KST4 141134Z 27008KT 02/M01 A2994 RMK A01 T00171005  RH  086%=      5-min Rain = 0
KST4 141135Z 27008KT 02/M01 A2994 RMK A01 T00181005  RH  085%=      5-min Rain = 0
KST4 141136Z 28009KT 02/M01 A2994 RMK A01 T00181005  RH  085%=      5-min Rain = 0
KST4 141137Z 28009KT 02/M01 A2994 RMK A01 T00171006  RH  085%=      5-min Rain = 0
KST4 141138Z 28009KT 02/M01 A2994 RMK A01 T00181007  RH  084%=      5-min Rain = 0
KST4 141139Z 27009KT 02/M01 A2994 RMK A01 T00171008  RH  084%=      5-min Rain = 0
KST4 141140Z 27010KT 02/M01 A2994 RMK A01 T00151008  RH  084%=      5-min Rain = 0
KST4 141141Z 27009KT 01/M01 A2994 RMK A01 T00141009  RH  085%=      5-min Rain = 0
KST4 141142Z 27010KT 01/M01 A2994 RMK A01 T00141008  RH  085%=      5-min Rain = 0
KST4 141143Z 28011KT 01/M01 A2995 RMK A01 T00141008  RH  085%=      5-min Rain = 0
KST4 141144Z 28011KT 01/M01 A2995 RMK A01 T00141008  RH  085%=      5-min Rain = 0
KST4 141145Z 28010KT 01/M01 A2995 RMK A01 T00141009  RH  084%=      5-min Rain = 0
KST4 141146Z 28010KT 01/M01 A2995 RMK A01 T00141009  RH  084%=      5-min Rain = 0
KST4 141147Z 28010KT 01/M01 A2995 RMK A01 T00131009  RH  085%=      5-min Rain = 0
KST4 141148Z 28010KT 01/M01 A2995 RMK A01 T00131009  RH  085%=      5-min Rain = 0
KST4 141149Z 29010KT 02/M01 A2995 RMK A01 T00151008  RH  085%=      5-min Rain = 0
KST4 141150Z 29010KT 02/M01 A2995 RMK A01 T00161008  RH  084%=      5-min Rain = 0
KST4 141151Z 28010KT 02/M01 A2995 RMK A01 T00171007  RH  084%=      5-min Rain = 0
KST4 141152Z 28009KT 02/M01 A2994 RMK A01 T00181008  RH  083%=      5-min Rain = 0
KST4 141153Z 28009KT 02/M01 A2995 RMK A01 T00181008  RH  083%=      5-min Rain = 0
KST4 141154Z 28009KT 02/M01 A2995 RMK A01 T00181008  RH  083%=      5-min Rain = 0
KST4 141155Z 27009KT 02/M01 A2995 RMK A01 T00171009  RH  083%=      5-min Rain = 0
KST4 141156Z 27008KT 02/M01 A2995 RMK A01 T00161009  RH  083%=      5-min Rain = 0
KST4 141157Z 27007KT 02/M01 A2995 RMK A01 T00161009  RH  084%=      5-min Rain = 0
KST4 141158Z 27008KT 02/M01 A2995 RMK A01 T00151009  RH  084%=      5-min Rain = 0
KST4 141159Z 28009KT 02/M01 A2995 RMK A01 T00151009  RH  084%=      5-min Rain = 0
KST4 141200Z 28009KT 02/M01 A2995 RMK A01 T00151009  RH  084%=      5-min Rain = 0
KST4 141201Z 28008KT 02/M01 A2995 RMK A01 T00151009  RH  084%=      5-min Rain = 0
KST4 141202Z 28008KT 02/M01 A2995 RMK A01 T00161009  RH  084%=      5-min Rain = 0
KST4 141203Z 27008KT 02/M01 A2995 RMK A01 T00161009  RH  083%=      5-min Rain = 0
KST4 141204Z 27008KT 02/M01 A2995 RMK A01 T00161009  RH  084%=      5-min Rain = 0
KST4 141205Z 28009KT 02/M01 A2995 RMK A01 T00151010  RH  084%=      5-min Rain = 0
KST4 141206Z 28009KT 02/M01 A2995 RMK A01 T00151010  RH  084%=      5-min Rain = 0
KST4 141207Z 28009KT 01/M01 A2995 RMK A01 T00141010  RH  084%=      5-min Rain = 0
KST4 141208Z 27009KT 01/M01 A2995 RMK A01 T00141010  RH  084%=      5-min Rain = 0
KST4 141209Z 27009KT 01/M01 A2995 RMK A01 T00141010  RH  084%=      5-min Rain = 0
KST4 141210Z 27008KT 01/M01 A2995 RMK A01 T00141010  RH  084%=      5-min Rain = 0
KST4 141211Z 27008KT 01/M01 A2995 RMK A01 T00131011  RH  084%=      5-min Rain = 0
KST4 141212Z 27008KT 01/M01 A2995 RMK A01 T00131010  RH  084%=      5-min Rain = 0
KST4 141213Z 27007KT 01/M01 A2995 RMK A01 T00131011  RH  084%=      5-min Rain = 0
KST4 141214Z 28007KT 01/M01 A2995 RMK A01 T00121011  RH  084%=      5-min Rain = 0
KST4 141215Z 28007KT 01/M01 A2995 RMK A01 T00121011  RH  085%=      5-min Rain = 0
KST4 141216Z 28007KT 01/M01 A2995 RMK A01 T00121011  RH  085%=      5-min Rain = 0
KST4 141217Z 28008KT 01/M01 A2995 RMK A01 T00121011  RH  085%=      5-min Rain = 0
KST4 141218Z 28008KT 01/M01 A2995 RMK A01 T00121012  RH  085%=      5-min Rain = 0
KST4 141219Z 28008KT 01/M01 A2995 RMK A01 T00121011  RH  084%=      5-min Rain = 0
KST4 141220Z 28008KT 01/M01 A2995 RMK A01 T00131011  RH  084%=      5-min Rain = 0
KST4 141221Z 28008KT 01/M01 A2995 RMK A01 T00131011  RH  084%=      5-min Rain = 0
KST4 141222Z 28009KT 01/M01 A2995 RMK A01 T00131011  RH  084%=      5-min Rain = 0
KST4 141223Z 28009KT 01/M01 A2995 RMK A01 T00141011  RH  083%=      5-min Rain = 0
KST4 141224Z 28009KT 01/M01 A2995 RMK A01 T00141012  RH  083%=      5-min Rain = 0
KST4 141225Z 28009KT 01/M01 A2995 RMK A01 T00141012  RH  083%=      5-min Rain = 0
KST4 141226Z 29009KT 01/M01 A2995 RMK A01 T00131012  RH  083%=      5-min Rain = 0
KST4 141227Z 29009KT 01/M01 A2995 RMK A01 T00131012  RH  083%=      5-min Rain = 0
KST4 141228Z 29009KT 01/M01 A2995 RMK A01 T00121013  RH  083%=      5-min Rain = 0
KST4 141229Z 29009KT 01/M01 A2995 RMK A01 T00121012  RH  084%=      5-min Rain = 0
KST4 141230Z 29009KT 01/M01 A2995 RMK A01 T00121013  RH  084%=      5-min Rain = 0
KST4 141231Z 29009KT 01/M01 A2995 RMK A01 T00121013  RH  084%=      5-min Rain = 0
KST4 141232Z 29009KT 01/M01 A2995 RMK A01 T00121013  RH  083%=      5-min Rain = 0
KST4 141233Z 29009KT 01/M01 A2995 RMK A01 T00131012  RH  083%=      5-min Rain = 0
KST4 141234Z 30009KT 01/M01 A2995 RMK A01 T00121013  RH  083%=      5-min Rain = 0
KST4 141235Z 29009KT 01/M01 A2995 RMK A01 T00131013  RH  083%=      5-min Rain = 0
KST4 141236Z 29009KT 01/M01 A2995 RMK A01 T00131013  RH  083%=      5-min Rain = 0
KST4 141237Z 29009KT 01/M01 A2995 RMK A01 T00141013  RH  083%=      5-min Rain = 0
KST4 141238Z 29008KT 01/M01 A2994 RMK A01 T00141013  RH  082%=      5-min Rain = 0
KST4 141239Z 29008KT 01/M01 A2994 RMK A01 T00141013  RH  082%=      5-min Rain = 0
KST4 141240Z 29008KT 01/M01 A2994 RMK A01 T00141013  RH  082%=      5-min Rain = 0
KST4 141241Z 29008KT 01/M01 A2995 RMK A01 T00141013  RH  082%=      5-min Rain = 0
KST4 141242Z 29008KT 01/M01 A2995 RMK A01 T00141013  RH  082%=      5-min Rain = 0
KST4 141243Z 29009KT 01/M01 A2995 RMK A01 T00141013  RH  082%=      5-min Rain = 0
KST4 141244Z 29008KT 01/M01 A2995 RMK A01 T00131014  RH  082%=      5-min Rain = 0
KST4 141245Z 28009KT 01/M01 A2995 RMK A01 T00131014  RH  082%=      5-min Rain = 0
KST4 141246Z 28009KT 01/M01 A2995 RMK A01 T00131014  RH  083%=      5-min Rain = 0
KST4 141247Z 28008KT 01/M01 A2995 RMK A01 T00131013  RH  083%=      5-min Rain = 0
KST4 141248Z 28009KT 01/M01 A2995 RMK A01 T00121014  RH  083%=      5-min Rain = 0
KST4 141249Z 28009KT 01/M01 A2995 RMK A01 T00131014  RH  083%=      5-min Rain = 0
KST4 141250Z 28009KT 01/M01 A2995 RMK A01 T00131014  RH  082%=      5-min Rain = 0
KST4 141251Z 28008KT 01/M01 A2995 RMK A01 T00131014  RH  082%=      5-min Rain = 0
KST4 141252Z 28009KT 01/M01 A2995 RMK A01 T00131014  RH  082%=      5-min Rain = 0
KST4 141253Z 28009KT 01/M01 A2995 RMK A01 T00131013  RH  082%=      5-min Rain = 0
KST4 141254Z 28009KT 02/M01 A2995 RMK A01 T00151012  RH  082%=      5-min Rain = 0
KST4 141255Z 28010KT 02/M01 A2995 RMK A01 T00161012  RH  082%=      5-min Rain = 0
KST4 141256Z 28010KT 02/M01 A2995 RMK A01 T00171011  RH  081%=      5-min Rain = 0
KST4 141257Z 28010KT 02/M01 A2995 RMK A01 T00201010  RH  080%=      5-min Rain = 0
KST4 141258Z 29010KT 02/M01 A2995 RMK A01 T00221010  RH  079%=      5-min Rain = 0
KST4 141259Z 29010KT 02/M01 A2995 RMK A01 T00231010  RH  079%=      5-min Rain = 0
KST4 141300Z 29010KT 02/M01 A2995 RMK A01 T00241010  RH  078%=      5-min Rain = 0
KST4 141301Z 29010KT 02/M01 A2995 RMK A01 T00231011  RH  078%=      5-min Rain = 0
KST4 141302Z 28010KT 02/M01 A2995 RMK A01 T00231011  RH  078%=      5-min Rain = 0
KST4 141303Z 28010KT 02/M01 A2995 RMK A01 T00231011  RH  078%=      5-min Rain = 0
KST4 141304Z 28009KT 02/M01 A2995 RMK A01 T00231012  RH  078%=      5-min Rain = 0
KST4 141305Z 28009KT 02/M01 A2995 RMK A01 T00231012  RH  078%=      5-min Rain = 0
KST4 141306Z 28010KT 02/M01 A2995 RMK A01 T00231012  RH  078%=      5-min Rain = 0
KST4 141307Z 28010KT 02/M01 A2995 RMK A01 T00231012  RH  078%=      5-min Rain = 0
KST4 141308Z 28011KT 02/M01 A2995 RMK A01 T00231012  RH  078%=      5-min Rain = 0
KST4 141309Z 29011KT 02/M01 A2995 RMK A01 T00231012  RH  078%=      5-min Rain = 0
KST4 141310Z 29011KT 02/M01 A2995 RMK A01 T00241012  RH  077%=      5-min Rain = 0
KST4 141311Z 29011KT 02/M01 A2995 RMK A01 T00241012  RH  077%=      5-min Rain = 0
KST4 141312Z 29009KT 03/M01 A2995 RMK A01 T00251012  RH  077%=      5-min Rain = 0
KST4 141313Z 29010KT 03/M01 A2995 RMK A01 T00251011  RH  077%=      5-min Rain = 0
KST4 141314Z 29010KT 03/M01 A2995 RMK A01 T00251011  RH  077%=      5-min Rain = 0
KST4 141315Z 29009KT 03/M01 A2995 RMK A01 T00251011  RH  077%=      5-min Rain = 0
KST4 141316Z 29009KT 03/M01 A2995 RMK A01 T00261011  RH  077%=      5-min Rain = 0
KST4 141317Z 29009KT 03/M01 A2995 RMK A01 T00261011  RH  077%=      5-min Rain = 0
KST4 141318Z 29009KT 03/M01 A2995 RMK A01 T00271010  RH  077%=      5-min Rain = 0
KST4 141319Z 29010KT 03/M01 A2995 RMK A01 T00271010  RH  076%=      5-min Rain = 0
KST4 141320Z 29010KT 03/M01 A2995 RMK A01 T00281009  RH  076%=      5-min Rain = 0
KST4 141321Z 29010KT 03/M01 A2995 RMK A01 T00291009  RH  076%=      5-min Rain = 0
KST4 141322Z 29009KT 03/M01 A2995 RMK A01 T00301008  RH  076%=      5-min Rain = 0
KST4 141323Z 29008KT 03/M01 A2995 RMK A01 T00301008  RH  076%=      5-min Rain = 0
KST4 141324Z 29009KT 03/M01 A2995 RMK A01 T00311008  RH  076%=      5-min Rain = 0
KST4 141325Z 29008KT 03/M01 A2995 RMK A01 T00311007  RH  076%=      5-min Rain = 0
KST4 141326Z 28008KT 03/M01 A2995 RMK A01 T00321007  RH  076%=      5-min Rain = 0
KST4 141327Z 28007KT 03/M01 A2995 RMK A01 T00331007  RH  075%=      5-min Rain = 0
KST4 141328Z 28008KT 03/M01 A2995 RMK A01 T00341006  RH  075%=      5-min Rain = 0
KST4 141329Z 28008KT 04/M01 A2995 RMK A01 T00351005  RH  075%=      5-min Rain = 0
KST4 141330Z 28007KT 04/M01 A2995 RMK A01 T00361005  RH  075%=      5-min Rain = 0
KST4 141331Z 28007KT 04/M00 A2995 RMK A01 T00371004  RH  075%=      5-min Rain = 0
KST4 141332Z 28008KT 04/M00 A2995 RMK A01 T00371004  RH  074%=      5-min Rain = 0
KST4 141333Z 28008KT 04/M00 A2995 RMK A01 T00391004  RH  074%=      5-min Rain = 0
KST4 141334Z 28009KT 04/M00 A2995 RMK A01 T00401004  RH  073%=      5-min Rain = 0
KST4 141335Z 28009KT 04/M00 A2995 RMK A01 T00411004  RH  072%=      5-min Rain = 0
KST4 141336Z 28008KT 04/M00 A2995 RMK A01 T00421004  RH  072%=      5-min Rain = 0
KST4 141337Z 28009KT 04/M00 A2995 RMK A01 T00431003  RH  072%=      5-min Rain = 0
KST4 141338Z 28008KT 04/M00 A2995 RMK A01 T00441003  RH  071%=      5-min Rain = 0
KST4 141339Z 28008KT 05/M00 A2995 RMK A01 T00461003  RH  071%=      5-min Rain = 0
KST4 141340Z 28009KT 05/M00 A2995 RMK A01 T00471003  RH  070%=      5-min Rain = 0
KST4 141341Z 29008KT 05/M00 A2995 RMK A01 T00491002  RH  069%=      5-min Rain = 0
KST4 141342Z 29009KT 05/M00 A2995 RMK A01 T00511002  RH  069%=      5-min Rain = 0
KST4 141343Z 29009KT 05/M00 A2995 RMK A01 T00521002  RH  068%=      5-min Rain = 0
KST4 141344Z 29009KT 05/M00 A2995 RMK A01 T00541003  RH  067%=      5-min Rain = 0
KST4 141345Z 29009KT 06/M00 A2995 RMK A01 T00561003  RH  066%=      5-min Rain = 0
KST4 141346Z 29008KT 06/M00 A2995 RMK A01 T00571003  RH  065%=      5-min Rain = 0
KST4 141347Z 29008KT 06/M00 A2995 RMK A01 T00581003  RH  065%=      5-min Rain = 0
KST4 141348Z 28008KT 06/M00 A2995 RMK A01 T00601001  RH  065%=      5-min Rain = 0
KST4 141349Z 29008KT 06/M00 A2995 RMK A01 T00611002  RH  064%=      5-min Rain = 0
KST4 141350Z 28008KT 06/M00 A2995 RMK A01 T00631001  RH  064%=      5-min Rain = 0
KST4 141351Z 28008KT 07/00 A2995 RMK A01 T006600-0  RH  063%=      5-min Rain = 0
KST4 141352Z 29008KT 07/00 A2995 RMK A01 T00680001  RH  062%=      5-min Rain = 0
KST4 141353Z 29008KT 07/00 A2995 RMK A01 T00700001  RH  062%=      5-min Rain = 0
KST4 141354Z 29008KT 07/00 A2995 RMK A01 T00720001  RH  061%=      5-min Rain = 0
KST4 141355Z 28009KT 07/00 A2995 RMK A01 T00740001  RH  060%=      5-min Rain = 0
KST4 141356Z 28008KT 08/00 A2995 RMK A01 T00760003  RH  060%=      5-min Rain = 0
KST4 141357Z 28007KT 08/00 A2995 RMK A01 T00780001  RH  058%=      5-min Rain = 0
KST4 141358Z 28008KT 08/00 A2995 RMK A01 T00810002  RH  057%=      5-min Rain = 0
KST4 141359Z 28007KT 08/00 A2995 RMK A01 T00830003  RH  057%=      5-min Rain = 0
KST4 141400Z 28006KT 09/00 A2995 RMK A01 T00850003  RH  057%=      5-min Rain = 0
KST4 141401Z 28007KT 09/00 A2995 RMK A01 T00870003  RH  055%=      5-min Rain = 0
KST4 141402Z 28007KT 09/00 A2995 RMK A01 T00890003  RH  055%=      5-min Rain = 0
KST4 141403Z 28007KT 09/01 A2995 RMK A01 T00900005  RH  055%=      5-min Rain = 0
KST4 141404Z 28007KT 09/01 A2995 RMK A01 T00920006  RH  055%=      5-min Rain = 0
KST4 141405Z 28007KT 09/01 A2995 RMK A01 T00940006  RH  054%=      5-min Rain = 0
KST4 141406Z 28007KT 10/01 A2996 RMK A01 T00950005  RH  053%=      5-min Rain = 0
KST4 141407Z 28007KT 10/00 A2996 RMK A01 T00980003  RH  052%=      5-min Rain = 0
KST4 141408Z 28007KT 10/00 A2996 RMK A01 T01000002  RH  051%=      5-min Rain = 0
KST4 141409Z 28008KT 10/00 A2996 RMK A01 T01020002  RH  050%=      5-min Rain = 0
KST4 141410Z 28008KT 10/00 A2996 RMK A01 T01040003  RH  049%=      5-min Rain = 0
KST4 141411Z 28008KT 11/00 A2996 RMK A01 T01060001  RH  048%=      5-min Rain = 0
KST4 141412Z 28008KT 11/00 A2996 RMK A01 T01080002  RH  048%=      5-min Rain = 0
KST4 141413Z 28007KT 11/00 A2996 RMK A01 T01090001  RH  047%=      5-min Rain = 0
KST4 141414Z 28007KT 11/00 A2996 RMK A01 T01100002  RH  047%=      5-min Rain = 0
KST4 141415Z 27007KT 11/00 A2996 RMK A01 T01110003  RH  047%=      5-min Rain = 0
KST4 141416Z 27008KT 11/00 A2996 RMK A01 T01110002  RH  047%=      5-min Rain = 0
KST4 141417Z 27008KT 11/M00 A2996 RMK A01 T01111002  RH  046%=      5-min Rain = 0
KST4 141418Z 27007KT 11/00 A2996 RMK A01 T01130001  RH  046%=      5-min Rain = 0
KST4 141419Z 27007KT 11/00 A2996 RMK A01 T01140003  RH  046%=      5-min Rain = 0
KST4 141420Z 27007KT 12/01 A2996 RMK A01 T01150005  RH  047%=      5-min Rain = 0
KST4 141421Z 27008KT 12/00 A2996 RMK A01 T01160004  RH  046%=      5-min Rain = 0
KST4 141422Z 27008KT 12/00 A2996 RMK A01 T01170001  RH  045%=      5-min Rain = 0
KST4 141423Z 26006KT 12/00 A2996 RMK A01 T01180004  RH  046%=      5-min Rain = 0
KST4 141424Z 26007KT 12/01 A2996 RMK A01 T01200007  RH  046%=      5-min Rain = 0
KST4 141425Z 26007KT 12/01 A2996 RMK A01 T01220005  RH  045%=      5-min Rain = 0
KST4 141426Z 26007KT 12/00 A2996 RMK A01 T01230004  RH  044%=      5-min Rain = 0
KST4 141427Z 26006KT 12/01 A2996 RMK A01 T01230007  RH  045%=      5-min Rain = 0
KST4 141428Z 27007KT 13/01 A2996 RMK A01 T01250008  RH  045%=      5-min Rain = 0
KST4 141429Z 27007KT 13/01 A2996 RMK A01 T01260006  RH  044%=      5-min Rain = 0
KST4 141430Z 27007KT 13/00 A2996 RMK A01 T01270004  RH  043%=      5-min Rain = 0
KST4 141431Z 27008KT 13/M00 A2996 RMK A01 T01291001  RH  041%=      5-min Rain = 0
KST4 141432Z 27008KT 13/M00 A2997 RMK A01 T01321001  RH  040%=      5-min Rain = 0
KST4 141433Z 27007KT 13/00 A2997 RMK A01 T01340003  RH  041%=      5-min Rain = 0
KST4 141434Z 27008KT 14/M00 A2997 RMK A01 T01361001  RH  039%=      5-min Rain = 0
KST4 141435Z 26008KT 14/M00 A2997 RMK A01 T01381002  RH  038%=      5-min Rain = 0
KST4 141436Z 25008KT 14/00 A2997 RMK A01 T01380003  RH  040%=      5-min Rain = 0
KST4 141437Z 25009KT 14/00 A2997 RMK A01 T01390003  RH  039%=      5-min Rain = 0
KST4 141438Z 25009KT 14/00 A2997 RMK A01 T01390001  RH  039%=      5-min Rain = 0
KST4 141439Z 25009KT 14/00 A2997 RMK A01 T01370003  RH  040%=      5-min Rain = 0
KST4 141440Z 25009KT 14/00 A2997 RMK A01 T01360001  RH  040%=      5-min Rain = 0
KST4 141441Z 26010KT 14/00 A2997 RMK A01 T01350000  RH  040%=      5-min Rain = 0
KST4 141442Z 26008KT 14/M00 A2997 RMK A01 T01351002  RH  039%=      5-min Rain = 0
KST4 141443Z 26007KT 13/00 A2997 RMK A01 T01340002  RH  040%=      5-min Rain = 0
KST4 141444Z 26009KT 14/M00 A2997 RMK A01 T01361001  RH  039%=      5-min Rain = 0
KST4 141445Z 25009KT 14/M01 A2997 RMK A01 T01381006  RH  037%=      5-min Rain = 0
KST4 141446Z 26009KT 14/M01 A2997 RMK A01 T01381008  RH  037%=      5-min Rain = 0
KST4 141447Z 26009KT 14/M01 A2997 RMK A01 T01401011  RH  035%=      5-min Rain = 0
KST4 141448Z 26009KT 14/M01 A2997 RMK A01 T01411010  RH  035%=      5-min Rain = 0
KST4 141449Z 26008KT 14/M01 A2997 RMK A01 T01441009  RH  035%=      5-min Rain = 0
KST4 141450Z 26008KT 15/M01 A2997 RMK A01 T01461009  RH  034%=      5-min Rain = 0
KST4 141451Z 26009KT 15/M01 A2997 RMK A01 T01481013  RH  033%=      5-min Rain = 0
KST4 141452Z 26007KT 15/M01 A2997 RMK A01 T01481013  RH  033%=      5-min Rain = 0
KST4 141453Z 27007KT 15/M01 A2997 RMK A01 T01501008  RH  034%=      5-min Rain = 0
KST4 141454Z 27008KT 15/M01 A2997 RMK A01 T01511011  RH  033%=      5-min Rain = 0
KST4 141455Z 27007KT 15/M01 A2997 RMK A01 T01511014  RH  032%=      5-min Rain = 0
KST4 141456Z 27006KT 15/M01 A2997 RMK A01 T01531008  RH  033%=      5-min Rain = 0
KST4 141457Z 27007KT 16/M01 A2997 RMK A01 T01551008  RH  033%=      5-min Rain = 0
KST4 141458Z 27007KT 16/M01 A2997 RMK A01 T01561009  RH  032%=      5-min Rain = 0
KST4 141459Z 27007KT 16/M01 A2997 RMK A01 T01571011  RH  032%=      5-min Rain = 0
KST4 141500Z 27007KT 16/M01 A2997 RMK A01 T01581008  RH  032%=      5-min Rain = 0
KST4 141501Z 26007KT 16/M01 A2997 RMK A01 T01601008  RH  032%=      5-min Rain = 0
KST4 141502Z 26007KT 16/M01 A2997 RMK A01 T01611008  RH  032%=      5-min Rain = 0
KST4 141503Z 26007KT 16/M01 A2997 RMK A01 T01621008  RH  031%=      5-min Rain = 0
KST4 141504Z 25008KT 16/M01 A2997 RMK A01 T01631008  RH  031%=      5-min Rain = 0
KST4 141505Z 25009KT 16/M01 A2997 RMK A01 T01641008  RH  031%=      5-min Rain = 0
KST4 141506Z 25009KT 17/M01 A2997 RMK A01 T01651010  RH  030%=      5-min Rain = 0
KST4 141507Z 25009KT 17/M01 A2997 RMK A01 T01661010  RH  030%=      5-min Rain = 0
KST4 141508Z 25009KT 17/M01 A2997 RMK A01 T01661011  RH  030%=      5-min Rain = 0
KST4 141509Z 26009KT 17/M01 A2997 RMK A01 T01671009  RH  030%=      5-min Rain = 0
KST4 141510Z 26008KT 17/M01 A2997 RMK A01 T01681011  RH  029%=      5-min Rain = 0
KST4 141511Z 26009KT 17/M01 A2997 RMK A01 T01691013  RH  029%=      5-min Rain = 0
KST4 141512Z 26008KT 17/M01 A2997 RMK A01 T01701012  RH  029%=      5-min Rain = 0
KST4 141513Z 25009KT 17/M01 A2997 RMK A01 T01711014  RH  028%=      5-min Rain = 0
KST4 141514Z 26009KT 17/M02 A2997 RMK A01 T01721016  RH  028%=      5-min Rain = 0
KST4 141515Z 26007KT 17/M01 A2997 RMK A01 T01731012  RH  028%=      5-min Rain = 0
KST4 141516Z 26007KT 18/M01 A2997 RMK A01 T01751013  RH  028%=      5-min Rain = 0
KST4 141517Z 26007KT 18/M01 A2997 RMK A01 T01761014  RH  028%=      5-min Rain = 0
KST4 141518Z 26007KT 18/M01 A2997 RMK A01 T01771013  RH  028%=      5-min Rain = 0
KST4 141519Z 26008KT 18/M01 A2997 RMK A01 T01781011  RH  028%=      5-min Rain = 0
KST4 141520Z 25008KT 18/M01 A2997 RMK A01 T01801012  RH  027%=      5-min Rain = 0
KST4 141521Z 25009KT 18/M01 A2997 RMK A01 T01811009  RH  028%=      5-min Rain = 0
KST4 141522Z 25008KT 18/M01 A2997 RMK A01 T01821012  RH  027%=      5-min Rain = 0
KST4 141523Z 26008KT 18/M02 A2997 RMK A01 T01831017  RH  026%=      5-min Rain = 0
KST4 141524Z 26006KT 18/M02 A2997 RMK A01 T01831019  RH  025%=      5-min Rain = 0
KST4 141525Z 26007KT 18/M02 A2997 RMK A01 T01841016  RH  026%=      5-min Rain = 0
KST4 141526Z 27006KT 19/M01 A2997 RMK A01 T01861009  RH  027%=      5-min Rain = 0
KST4 141527Z 27008KT 19/M01 A2997 RMK A01 T01901013  RH  025%=      5-min Rain = 0
KST4 141528Z 26008KT 19/M02 A2998 RMK A01 T01911015  RH  025%=      5-min Rain = 0
KST4 141529Z 25008KT 19/M01 A2998 RMK A01 T01911014  RH  025%=      5-min Rain = 0
KST4 141530Z 27006KT 19/M01 A2998 RMK A01 T01911009  RH  026%=      5-min Rain = 0
KST4 141531Z 28008KT 19/M01 A2998 RMK A01 T01931014  RH  025%=      5-min Rain = 0
KST4 141532Z 27008KT 19/M02 A2997 RMK A01 T01941019  RH  024%=      5-min Rain = 0
KST4 141533Z 26007KT 20/M02 A2997 RMK A01 T01951017  RH  024%=      5-min Rain = 0
KST4 141534Z 25007KT 20/M01 A2997 RMK A01 T01961013  RH  024%=      5-min Rain = 0
KST4 141535Z 25007KT 20/M01 A2997 RMK A01 T01971011  RH  025%=      5-min Rain = 0
KST4 141536Z 25007KT 20/M01 A2997 RMK A01 T01981011  RH  024%=      5-min Rain = 0
KST4 141537Z 25007KT 20/M01 A2997 RMK A01 T02001005  RH  025%=      5-min Rain = 0
KST4 141538Z 26006KT 20/M00 A2997 RMK A01 T02011004  RH  025%=      5-min Rain = 0
KST4 141539Z 27005KT 20/M01 A2998 RMK A01 T02031007  RH  024%=      5-min Rain = 0
KST4 141540Z 26007KT 21/M01 A2998 RMK A01 T02051011  RH  023%=      5-min Rain = 0
KST4 141541Z 27008KT 21/M01 A2998 RMK A01 T02061013  RH  023%=      5-min Rain = 0
KST4 141542Z 27006KT 21/M02 A2998 RMK A01 T02051017  RH  022%=      5-min Rain = 0
KST4 141543Z 27007KT 21/M02 A2998 RMK A01 T02061015  RH  023%=      5-min Rain = 0
KST4 141544Z 27008KT 21/M02 A2998 RMK A01 T02071019  RH  022%=      5-min Rain = 0
KST4 141545Z 26007KT 21/M02 A2998 RMK A01 T02071019  RH  022%=      5-min Rain = 0
KST4 141546Z 26007KT 21/M02 A2998 RMK A01 T02081016  RH  022%=      5-min Rain = 0
KST4 141547Z 26006KT 21/M01 A2998 RMK A01 T02091011  RH  023%=      5-min Rain = 0
KST4 141548Z 26007KT 21/M01 A2998 RMK A01 T02101005  RH  024%=      5-min Rain = 0
KST4 141549Z 25009KT 21/M01 A2998 RMK A01 T02121013  RH  022%=      5-min Rain = 0
KST4 141550Z 25008KT 21/M02 A2998 RMK A01 T02131016  RH  021%=      5-min Rain = 0
KST4 141551Z 26008KT 21/M02 A2998 RMK A01 T02121016  RH  022%=      5-min Rain = 0
KST4 141552Z 26007KT 21/M02 A2998 RMK A01 T02131016  RH  021%=      5-min Rain = 0
KST4 141553Z 25007KT 21/M01 A2998 RMK A01 T02141014  RH  022%=      5-min Rain = 0
KST4 141554Z 27006KT 22/M01 A2998 RMK A01 T02151012  RH  022%=      5-min Rain = 0
KST4 141555Z 26007KT 22/M02 A2998 RMK A01 T02161019  RH  021%=      5-min Rain = 0
KST4 141556Z 25005KT 22/M02 A2997 RMK A01 T02161021  RH  020%=      5-min Rain = 0
KST4 141557Z 26006KT 22/M02 A2997 RMK A01 T02161019  RH  021%=      5-min Rain = 0
KST4 141558Z 25006KT 22/M02 A2997 RMK A01 T02171018  RH  021%=      5-min Rain = 0
KST4 141559Z 25005KT 22/M01 A2997 RMK A01 T02171014  RH  021%=      5-min Rain = 0
KST4 141600Z 26006KT 22/M02 A2997 RMK A01 T02191015  RH  021%=      5-min Rain = 0
KST4 141601Z 25005KT 22/M01 A2997 RMK A01 T02201013  RH  021%=      5-min Rain = 0
KST4 141602Z 25006KT 22/M02 A2997 RMK A01 T02221016  RH  020%=      5-min Rain = 0
KST4 141603Z 25005KT 22/M02 A2997 RMK A01 T02221016  RH  020%=      5-min Rain = 0
KST4 141604Z 26005KT 22/M01 A2997 RMK A01 T02231013  RH  021%=      5-min Rain = 0
KST4 141605Z 26006KT 22/M01 A2997 RMK A01 T02241010  RH  021%=      5-min Rain = 0
KST4 141606Z 25006KT 23/M01 A2997 RMK A01 T02271006  RH  021%=      5-min Rain = 0
KST4 141607Z 27005KT 23/M01 A2997 RMK A01 T02291012  RH  020%=      5-min Rain = 0
KST4 141608Z 26004KT 23/M01 A2997 RMK A01 T02311012  RH  020%=      5-min Rain = 0
KST4 141609Z 25003KT 23/M01 A2997 RMK A01 T02321011  RH  020%=      5-min Rain = 0
KST4 141610Z 25004KT 23/M02 A2997 RMK A01 T02331015  RH  019%=      5-min Rain = 0
KST4 141611Z 25004KT 23/M01 A2997 RMK A01 T02341013  RH  019%=      5-min Rain = 0
KST4 141612Z 26005KT 24/M01 A2997 RMK A01 T02351008  RH  020%=      5-min Rain = 0
KST4 141613Z 28006KT 24/M01 A2997 RMK A01 T02381010  RH  019%=      5-min Rain = 0
KST4 141614Z 27005KT 24/M01 A2997 RMK A01 T02401014  RH  018%=      5-min Rain = 0
KST4 141615Z 25006KT 24/M01 A2997 RMK A01 T02401008  RH  019%=      5-min Rain = 0
KST4 141616Z 25005KT 24/M01 A2997 RMK A01 T02401011  RH  019%=      5-min Rain = 0
KST4 141617Z 26004KT 24/M01 A2997 RMK A01 T02411014  RH  018%=      5-min Rain = 0
KST4 141618Z 25006KT 24/M01 A2997 RMK A01 T02411010  RH  019%=      5-min Rain = 0
KST4 141619Z 24005KT 24/M01 A2997 RMK A01 T02421010  RH  019%=      5-min Rain = 0
KST4 141620Z 24003KT 24/M02 A2997 RMK A01 T02421016  RH  018%=      5-min Rain = 0
KST4 141621Z 26006KT 24/M01 A2997 RMK A01 T02431008  RH  019%=      5-min Rain = 0
KST4 141622Z 24006KT 25/M01 A2997 RMK A01 T02451009  RH  019%=      5-min Rain = 0
KST4 141623Z 24006KT 25/M01 A2997 RMK A01 T02461007  RH  019%=      5-min Rain = 0
KST4 141624Z 23005KT 25/M01 A2997 RMK A01 T02471011  RH  018%=      5-min Rain = 0
KST4 141625Z 24005KT 25/M01 A2996 RMK A01 T02471010  RH  018%=      5-min Rain = 0
KST4 141626Z 24004KT 25/M02 A2996 RMK A01 T02451015  RH  018%=      5-min Rain = 0
KST4 141627Z 23006KT 24/M00 A2996 RMK A01 T02441002  RH  020%=      5-min Rain = 0
KST4 141628Z 22006KT 25/M01 A2996 RMK A01 T02451005  RH  019%=      5-min Rain = 0
KST4 141629Z 23005KT 25/00 A2996 RMK A01 T02460004  RH  020%=      5-min Rain = 0
KST4 141630Z 24005KT 25/M01 A2996 RMK A01 T02481005  RH  019%=      5-min Rain = 0
KST4 141631Z 25004KT 25/M01 A2996 RMK A01 T02471009  RH  018%=      5-min Rain = 0
KST4 141632Z 24005KT 25/M01 A2996 RMK A01 T02481008  RH  018%=      5-min Rain = 0
KST4 141633Z 23005KT 25/M00 A2996 RMK A01 T02501003  RH  019%=      5-min Rain = 0
KST4 141634Z 22004KT 25/M01 A2996 RMK A01 T02511007  RH  018%=      5-min Rain = 0
KST4 141635Z 23004KT 25/00 A2996 RMK A01 T02500001  RH  019%=      5-min Rain = 0
KST4 141636Z 21006KT 25/00 A2996 RMK A01 T02530000  RH  019%=      5-min Rain = 0
KST4 141637Z 20006KT 25/M01 A2996 RMK A01 T02541005  RH  018%=      5-min Rain = 0
KST4 141638Z 21005KT 25/M00 A2996 RMK A01 T02531003  RH  019%=      5-min Rain = 0
KST4 141639Z 23004KT 25/00 A2996 RMK A01 T02530002  RH  019%=      5-min Rain = 0
KST4 141640Z 24004KT 25/M01 A2996 RMK A01 T02541007  RH  018%=      5-min Rain = 0
KST4 141641Z 24005KT 25/M01 A2996 RMK A01 T02541007  RH  018%=      5-min Rain = 0
KST4 141642Z 24004KT 25/M01 A2996 RMK A01 T02541012  RH  017%=      5-min Rain = 0
KST4 141643Z 24005KT 25/M01 A2996 RMK A01 T02531011  RH  017%=      5-min Rain = 0
KST4 141644Z 25005KT 25/M01 A2996 RMK A01 T02521008  RH  018%=      5-min Rain = 0
KST4 141645Z 24005KT 25/M01 A2996 RMK A01 T02511011  RH  018%=      5-min Rain = 0
KST4 141646Z 24004KT 25/M01 A2996 RMK A01 T02501012  RH  018%=      5-min Rain = 0
KST4 141647Z 24003KT 25/M01 A2996 RMK A01 T02511010  RH  018%=      5-min Rain = 0
KST4 141648Z 24004KT 25/M01 A2995 RMK A01 T02521011  RH  018%=      5-min Rain = 0
KST4 141649Z 23006KT 25/00 A2995 RMK A01 T02530004  RH  020%=      5-min Rain = 0
KST4 141650Z 24006KT 26/00 A2995 RMK A01 T02570003  RH  019%=      5-min Rain = 0
KST4 141651Z 24005KT 26/00 A2995 RMK A01 T02590001  RH  018%=      5-min Rain = 0
KST4 141652Z 25005KT 26/00 A2995 RMK A01 T02600002  RH  018%=      5-min Rain = 0
KST4 141653Z 25005KT 26/M00 A2995 RMK A01 T02611001  RH  018%=      5-min Rain = 0
KST4 141654Z 27004KT 26/M01 A2995 RMK A01 T02621006  RH  017%=      5-min Rain = 0
KST4 141655Z 30002KT 26/M01 A2995 RMK A01 T02611012  RH  017%=      5-min Rain = 0
KST4 141656Z 24003KT 26/M01 A2995 RMK A01 T02591007  RH  017%=      5-min Rain = 0
KST4 141657Z 24006KT 26/01 A2995 RMK A01 T02600006  RH  019%=      5-min Rain = 0
KST4 141658Z 25006KT 26/00 A2995 RMK A01 T02610001  RH  018%=      5-min Rain = 0
KST4 141659Z 25006KT 26/M00 A2995 RMK A01 T02611001  RH  018%=      5-min Rain = 0
KST4 141700Z 24005KT 26/M01 A2995 RMK A01 T02611006  RH  017%=      5-min Rain = 0
KST4 141701Z 24003KT 26/M01 A2995 RMK A01 T02611006  RH  017%=      5-min Rain = 0
KST4 141702Z 23003KT 26/M01 A2995 RMK A01 T02621006  RH  017%=      5-min Rain = 0
KST4 141703Z 22003KT 26/M01 A2995 RMK A01 T02611009  RH  017%=      5-min Rain = 0
KST4 141704Z 20001KT 26/M01 A2995 RMK A01 T02611006  RH  017%=      5-min Rain = 0
KST4 141705Z 29004KT 26/M00 A2995 RMK A01 T02631002  RH  018%=      5-min Rain = 0
KST4 141706Z 25004KT 27/M01 A2995 RMK A01 T02651008  RH  017%=      5-min Rain = 0
KST4 141707Z 26006KT 27/00 A2995 RMK A01 T02670004  RH  018%=      5-min Rain = 0
KST4 141708Z 27005KT 27/M00 A2995 RMK A01 T02701001  RH  017%=      5-min Rain = 0
KST4 141709Z 26004KT 27/M01 A2995 RMK A01 T02711008  RH  016%=      5-min Rain = 0
KST4 141710Z 24004KT 27/M01 A2995 RMK A01 T02721010  RH  016%=      5-min Rain = 0
KST4 141711Z 26004KT 27/M01 A2995 RMK A01 T02701009  RH  016%=      5-min Rain = 0
KST4 141712Z 24005KT 27/M01 A2995 RMK A01 T02681008  RH  016%=      5-min Rain = 0
KST4 141713Z 24006KT 27/01 A2995 RMK A01 T02690007  RH  018%=      5-min Rain = 0
KST4 141714Z 25009KT 27/01 A2995 RMK A01 T02720006  RH  018%=      5-min Rain = 0
KST4 141715Z 25009KT 27/M01 A2995 RMK A01 T02731007  RH  016%=      5-min Rain = 0
KST4 141716Z 26007KT 27/M01 A2995 RMK A01 T02701008  RH  016%=      5-min Rain = 0
KST4 141717Z 26005KT 27/M01 A2995 RMK A01 T02691012  RH  016%=      5-min Rain = 0
KST4 141718Z 26005KT 27/M01 A2995 RMK A01 T02671012  RH  016%=      5-min Rain = 0
KST4 141719Z 24006KT 27/M00 A2995 RMK A01 T02691003  RH  017%=      5-min Rain = 0
KST4 141720Z 28005KT 27/M01 A2994 RMK A01 T02701007  RH  016%=      5-min Rain = 0
KST4 141721Z 26004KT 27/M00 A2994 RMK A01 T02711001  RH  017%=      5-min Rain = 0
KST4 141722Z 25006KT 27/M00 A2994 RMK A01 T02741001  RH  017%=      5-min Rain = 0
KST4 141723Z 25007KT 28/00 A2994 RMK A01 T02750004  RH  017%=      5-min Rain = 0
KST4 141724Z 24006KT 28/M01 A2994 RMK A01 T02751005  RH  016%=      5-min Rain = 0
KST4 141725Z 24006KT 28/M00 A2994 RMK A01 T02751004  RH  016%=      5-min Rain = 0
KST4 141726Z 24004KT 27/M01 A2994 RMK A01 T02731011  RH  016%=      5-min Rain = 0
KST4 141727Z 23006KT 27/M01 A2994 RMK A01 T02721005  RH  016%=      5-min Rain = 0
KST4 141728Z 23007KT 27/00 A2994 RMK A01 T02720000  RH  017%=      5-min Rain = 0
KST4 141729Z 23006KT 27/M01 A2994 RMK A01 T02731005  RH  016%=      5-min Rain = 0
KST4 141730Z 25006KT 27/00 A2994 RMK A01 T02740004  RH  017%=      5-min Rain = 0
KST4 141731Z 28007KT 28/01 A2994 RMK A01 T02760007  RH  017%=      5-min Rain = 0
KST4 141732Z 28009KT 28/M01 A2994 RMK A01 T02791009  RH  015%=      5-min Rain = 0
KST4 141733Z 27004KT 28/M01 A2994 RMK A01 T02791013  RH  015%=      5-min Rain = 0
KST4 141734Z 28002KT 28/M02 A2994 RMK A01 T02781015  RH  015%=      5-min Rain = 0
KST4 141735Z 27004KT 28/M01 A2994 RMK A01 T02781011  RH  015%=      5-min Rain = 0
KST4 141736Z 26004KT 28/M01 A2994 RMK A01 T02781008  RH  015%=      5-min Rain = 0
KST4 141737Z 27004KT 28/M01 A2993 RMK A01 T02781011  RH  015%=      5-min Rain = 0
KST4 141738Z 28004KT 28/00 A2993 RMK A01 T02790001  RH  016%=      5-min Rain = 0
KST4 141739Z 28006KT 28/M01 A2993 RMK A01 T02811011  RH  015%=      5-min Rain = 0
KST4 141740Z 28006KT 28/M01 A2993 RMK A01 T02821012  RH  015%=      5-min Rain = 0
KST4 141741Z 26004KT 28/M01 A2993 RMK A01 T02811012  RH  015%=      5-min Rain = 0
KST4 141742Z 29005KT 28/M01 A2993 RMK A01 T02811010  RH  015%=      5-min Rain = 0
KST4 141743Z 32004KT 28/M01 A2993 RMK A01 T02801014  RH  015%=      5-min Rain = 0
KST4 141744Z 25004KT 28/M01 A2993 RMK A01 T02801011  RH  015%=      5-min Rain = 0
KST4 141745Z 22006KT 28/00 A2993 RMK A01 T02800003  RH  017%=      5-min Rain = 0
KST4 141746Z 21005KT 28/01 A2993 RMK A01 T02820008  RH  017%=      5-min Rain = 0
KST4 141747Z 25006KT 29/01 A2993 RMK A01 T02850006  RH  016%=      5-min Rain = 0
KST4 141748Z 24004KT 29/M01 A2993 RMK A01 T02851007  RH  015%=      5-min Rain = 0
KST4 141749Z 22006KT 28/01 A2993 RMK A01 T02840011  RH  017%=      5-min Rain = 0
KST4 141750Z 22006KT 29/00 A2993 RMK A01 T02850004  RH  016%=      5-min Rain = 0
KST4 141751Z 19005KT 28/M01 A2993 RMK A01 T02841011  RH  015%=      5-min Rain = 0
KST4 141752Z 23007KT 28/00 A2993 RMK A01 T02840002  RH  016%=      5-min Rain = 0
KST4 141753Z 23008KT 28/01 A2993 RMK A01 T02840011  RH  017%=      5-min Rain = 0
KST4 141754Z 24008KT 29/00 A2993 RMK A01 T02850003  RH  016%=      5-min Rain = 0
KST4 141755Z 24006KT 29/M00 A2993 RMK A01 T02851004  RH  015%=      5-min Rain = 0
KST4 141756Z 24006KT 29/M01 A2993 RMK A01 T02851005  RH  015%=      5-min Rain = 0
KST4 141757Z 25006KT 29/M01 A2993 RMK A01 T02851009  RH  015%=      5-min Rain = 0
KST4 141758Z 24003KT 28/M02 A2993 RMK A01 T02831016  RH  014%=      5-min Rain = 0
KST4 141759Z 23004KT 28/M01 A2993 RMK A01 T02831005  RH  015%=      5-min Rain = 0
KST4 141800Z 24002KT 29/M01 A2992 RMK A01 T02851008  RH  015%=      5-min Rain = 0
KST4 141801Z 25004KT 29/M01 A2992 RMK A01 T02861011  RH  014%=      5-min Rain = 0
KST4 141802Z 26003KT 29/M02 A2992 RMK A01 T02861018  RH  014%=      5-min Rain = 0
KST4 141803Z 26003KT 29/M02 A2992 RMK A01 T02851020  RH  014%=      5-min Rain = 0
KST4 141804Z 20003KT 29/M02 A2992 RMK A01 T02861017  RH  014%=      5-min Rain = 0
KST4 141805Z 19003KT 29/M02 A2992 RMK A01 T02871020  RH  013%=      5-min Rain = 0
KST4 141806Z 19002KT 29/M02 A2992 RMK A01 T02861023  RH  013%=      5-min Rain = 0
KST4 141807Z 19002KT 28/M02 A2992 RMK A01 T02841019  RH  014%=      5-min Rain = 0
KST4 141808Z 15004KT 29/M02 A2992 RMK A01 T02851016  RH  014%=      5-min Rain = 0
KST4 141809Z 16004KT 29/M02 A2992 RMK A01 T02861022  RH  013%=      5-min Rain = 0
KST4 141810Z 20004KT 29/M01 A2992 RMK A01 T02861009  RH  015%=      5-min Rain = 0
KST4 141811Z 20005G10KT 29/M01 A2992 RMK A01 T02861008  RH  015%=      5-min Rain = 0
KST4 141812Z 21010KT 29/00 A2992 RMK A01 T02880001  RH  016%=      5-min Rain = 0
KST4 141813Z 22007KT 29/M00 A2992 RMK A01 T02901003  RH  015%=      5-min Rain = 0
KST4 141814Z 22006KT 29/M01 A2991 RMK A01 T02911007  RH  014%=      5-min Rain = 0
KST4 141815Z 21009G15KT 29/00 A2991 RMK A01 T02900003  RH  016%=      5-min Rain = 0
KST4 141816Z 21013KT 29/00 A2991 RMK A01 T02890002  RH  016%=      5-min Rain = 0
KST4 141817Z 20010KT 29/M01 A2991 RMK A01 T02871008  RH  015%=      5-min Rain = 0
KST4 141818Z 19009KT 29/M01 A2991 RMK A01 T02871008  RH  015%=      5-min Rain = 0
KST4 141819Z 21008KT 29/M01 A2991 RMK A01 T02871007  RH  015%=      5-min Rain = 0
KST4 141820Z 20006KT 29/M00 A2991 RMK A01 T02891003  RH  015%=      5-min Rain = 0
KST4 141821Z 20006KT 29/M00 A2991 RMK A01 T02901002  RH  015%=      5-min Rain = 0
KST4 141822Z 22009KT 29/M01 A2991 RMK A01 T02931010  RH  014%=      5-min Rain = 0
KST4 141823Z 23007KT 29/M01 A2991 RMK A01 T02911010  RH  014%=      5-min Rain = 0
KST4 141824Z 23007KT 29/00 A2991 RMK A01 T02900002  RH  016%=      5-min Rain = 0
KST4 141825Z 23006KT 29/00 A2991 RMK A01 T02920000  RH  015%=      5-min Rain = 0
KST4 141826Z 23005KT 29/M01 A2991 RMK A01 T02941012  RH  014%=      5-min Rain = 0
KST4 141827Z 21006KT 30/M01 A2991 RMK A01 T02951008  RH  014%=      5-min Rain = 0
KST4 141828Z 18006KT 29/00 A2991 RMK A01 T02930000  RH  015%=      5-min Rain = 0
KST4 141829Z 19009KT 29/01 A2991 RMK A01 T02930014  RH  017%=      5-min Rain = 0
KST4 141830Z 23011KT 29/01 A2991 RMK A01 T02930012  RH  016%=      5-min Rain = 0
KST4 141831Z 23007KT 29/M00 A2991 RMK A01 T02911003  RH  015%=      5-min Rain = 0
KST4 141832Z 23006KT 29/M01 A2991 RMK A01 T02911005  RH  015%=      5-min Rain = 0
KST4 141833Z 22005KT 29/M01 A299 RMK A01 T02911011  RH  014%=      5-min Rain = 0
KST4 141834Z 20010G16KT 29/01 A299 RMK A01 T02920009  RH  016%=      5-min Rain = 0
KST4 141835Z 23012KT 29/00 A299 RMK A01 T02940004  RH  015%=      5-min Rain = 0
KST4 141836Z 26007KT 29/M02 A299 RMK A01 T02921015  RH  014%=      5-min Rain = 0
KST4 141837Z 25005KT 29/M02 A299 RMK A01 T02901020  RH  013%=      5-min Rain = 0
KST4 141838Z 21009G14KT 29/M01 A299 RMK A01 T02911005  RH  015%=      5-min Rain = 0
KST4 141839Z 20010KT 29/01 A299 RMK A01 T02940012  RH  016%=      5-min Rain = 0
KST4 141840Z 18011KT 30/M01 A299 RMK A01 T02951006  RH  014%=      5-min Rain = 0
KST4 141841Z 19009KT 29/M01 A299 RMK A01 T02941009  RH  014%=      5-min Rain = 0
KST4 141842Z 21013KT 29/M00 A299 RMK A01 T02941001  RH  015%=      5-min Rain = 0
KST4 141843Z 21012KT 29/M00 A299 RMK A01 T02931001  RH  015%=      5-min Rain = 0
KST4 141844Z 21008KT 29/M01 A299 RMK A01 T02931010  RH  014%=      5-min Rain = 0
KST4 141845Z 20011KT 29/M00 A299 RMK A01 T02931004  RH  015%=      5-min Rain = 0
KST4 141846Z 24010KT 29/M01 A299 RMK A01 T02931013  RH  014%=      5-min Rain = 0
KST4 141847Z 24011KT 29/M01 A299 RMK A01 T02921009  RH  014%=      5-min Rain = 0
KST4 141848Z 25009G15KT 29/M01 A2989 RMK A01 T02921007  RH  014%=      5-min Rain = 0
KST4 141849Z 19013KT 29/00 A2989 RMK A01 T02940001  RH  015%=      5-min Rain = 0
KST4 141850Z 21009KT 30/M00 A299 RMK A01 T02951003  RH  015%=      5-min Rain = 0
KST4 141851Z 22010KT 30/00 A299 RMK A01 T02950004  RH  015%=      5-min Rain = 0
KST4 141852Z 22009KT 30/00 A299 RMK A01 T02950003  RH  015%=      5-min Rain = 0
KST4 141853Z 21008KT 29/M00 A299 RMK A01 T02941003  RH  015%=      5-min Rain = 0
KST4 141854Z 21009KT 30/01 A299 RMK A01 T02950005  RH  015%=      5-min Rain = 0
KST4 141855Z 20012KT 29/01 A2989 RMK A01 T02940005  RH  015%=      5-min Rain = 0
KST4 141856Z 17012KT 29/00 A2989 RMK A01 T02930000  RH  015%=      5-min Rain = 0
KST4 141857Z 18015KT 30/M00 A2989 RMK A01 T02951004  RH  014%=      5-min Rain = 0
KST4 141858Z 21015G22KT 29/00 A2989 RMK A01 T02940001  RH  015%=      5-min Rain = 0
KST4 141859Z 21008KT 29/M00 A2989 RMK A01 T02921003  RH  015%=      5-min Rain = 0
KST4 141900Z 22011KT 29/01 A2989 RMK A01 T02920007  RH  016%=      5-min Rain = 0
KST4 141901Z 21010KT 29/M00 A2989 RMK A01 T02931004  RH  015%=      5-min Rain = 0
KST4 141902Z 21011KT 29/M01 A2989 RMK A01 T02931006  RH  014%=      5-min Rain = 0
KST4 141903Z 23014KT 29/00 A2989 RMK A01 T029300-0  RH  015%=      5-min Rain = 0
KST4 141904Z 22011KT 29/M01 A2989 RMK A01 T02931010  RH  014%=      5-min Rain = 0
KST4 141905Z 21012KT 29/01 A2989 RMK A01 T02930009  RH  016%=      5-min Rain = 0
KST4 141906Z 20015G21KT 30/01 A2989 RMK A01 T02960013  RH  016%=      5-min Rain = 0
KST4 141907Z 23014G19KT 30/00 A2989 RMK A01 T02980001  RH  015%=      5-min Rain = 0
KST4 141908Z 21015KT 30/02 A2989 RMK A01 T02970016  RH  016%=      5-min Rain = 0
KST4 141909Z 22015KT 30/00 A2989 RMK A01 T02970000  RH  015%=      5-min Rain = 0
KST4 141910Z 21014KT 30/00 A2989 RMK A01 T02950004  RH  015%=      5-min Rain = 0
KST4 141911Z 21016KT 30/01 A2989 RMK A01 T02950005  RH  015%=      5-min Rain = 0
KST4 141912Z 19012G17KT 29/00 A2989 RMK A01 T02940001  RH  015%=      5-min Rain = 0
KST4 141913Z 20009KT 29/M00 A2989 RMK A01 T02921003  RH  015%=      5-min Rain = 0
KST4 141914Z 21009KT 29/M00 A2989 RMK A01 T02941004  RH  015%=      5-min Rain = 0
KST4 141915Z 21013KT 30/01 A2989 RMK A01 T02950010  RH  016%=      5-min Rain = 0
KST4 141916Z 21014KT 30/00 A2988 RMK A01 T02960002  RH  015%=      5-min Rain = 0
KST4 141917Z 23014KT 29/M00 A2989 RMK A01 T02941001  RH  015%=      5-min Rain = 0
KST4 141918Z 25012KT 29/M01 A2988 RMK A01 T02921010  RH  014%=      5-min Rain = 0
KST4 141919Z 26011G16KT 29/M01 A2988 RMK A01 T02911007  RH  014%=      5-min Rain = 0
KST4 141920Z 26008KT 29/M01 A2988 RMK A01 T02911008  RH  014%=      5-min Rain = 0
KST4 141921Z 24008KT 29/M00 A2988 RMK A01 T02921004  RH  015%=      5-min Rain = 0
KST4 141922Z 22010G16KT 29/01 A2988 RMK A01 T02940012  RH  016%=      5-min Rain = 0
KST4 141923Z 22014G19KT 30/02 A2988 RMK A01 T02980018  RH  017%=      5-min Rain = 0
KST4 141924Z 23016KT 30/01 A2988 RMK A01 T02990011  RH  016%=      5-min Rain = 0
KST4 141925Z 24009KT 30/M00 A2988 RMK A01 T02971001  RH  015%=      5-min Rain = 0
KST4 141926Z 22012KT 30/01 A2988 RMK A01 T02950006  RH  015%=      5-min Rain = 0
KST4 141927Z 22010KT 30/00 A2988 RMK A01 T02960001  RH  015%=      5-min Rain = 0
KST4 141928Z 22009KT 30/01 A2988 RMK A01 T02950006  RH  016%=      5-min Rain = 0
KST4 141929Z 22013KT 30/02 A2988 RMK A01 T02970016  RH  016%=      5-min Rain = 0
KST4 141930Z 22011KT 30/00 A2988 RMK A01 T02970004  RH  015%=      5-min Rain = 0
KST4 141931Z 23012KT 30/01 A2988 RMK A01 T02960006  RH  015%=      5-min Rain = 0
KST4 141932Z 22013KT 29/00 A2988 RMK A01 T029300-0  RH  015%=      5-min Rain = 0
KST4 141933Z 21012KT 29/01 A2987 RMK A01 T02910008  RH  016%=      5-min Rain = 0
KST4 141934Z 20014KT 29/02 A2987 RMK A01 T02920016  RH  017%=      5-min Rain = 0
KST4 141935Z 19016KT 29/01 A2987 RMK A01 T02940007  RH  016%=      5-min Rain = 0
KST4 141936Z 22013G18KT 29/01 A2987 RMK A01 T02930005  RH  016%=      5-min Rain = 0
KST4 141937Z 23015KT 29/00 A2987 RMK A01 T02930004  RH  015%=      5-min Rain = 0
KST4 141938Z 22015KT 29/01 A2987 RMK A01 T02940008  RH  016%=      5-min Rain = 0
KST4 141939Z 23014KT 30/01 A2987 RMK A01 T02950006  RH  016%=      5-min Rain = 0
KST4 141940Z 24010KT 29/M01 A2987 RMK A01 T02941010  RH  014%=      5-min Rain = 0
KST4 141941Z 23012G18KT 29/00 A2987 RMK A01 T02930002  RH  015%=      5-min Rain = 0
KST4 141942Z 22013KT 30/01 A2987 RMK A01 T02950014  RH  016%=      5-min Rain = 0
KST4 141943Z 22016KT 30/02 A2987 RMK A01 T02970015  RH  016%=      5-min Rain = 0
KST4 141944Z 24012KT 30/01 A2987 RMK A01 T02960014  RH  016%=      5-min Rain = 0
KST4 141945Z 22010KT 30/01 A2987 RMK A01 T02950012  RH  016%=      5-min Rain = 0
KST4 141946Z 21010KT 29/01 A2987 RMK A01 T02940012  RH  016%=      5-min Rain = 0
KST4 141947Z 21013G18KT 29/02 A2987 RMK A01 T02940021  RH  017%=      5-min Rain = 0
KST4 141948Z 23015KT 30/01 A2987 RMK A01 T02950014  RH  016%=      5-min Rain = 0
KST4 141949Z 22009KT 29/00 A2987 RMK A01 T02930004  RH  015%=      5-min Rain = 0
KST4 141950Z 21013KT 29/02 A2987 RMK A01 T02920018  RH  017%=      5-min Rain = 0
KST4 141951Z 19015KT 29/02 A2987 RMK A01 T02930016  RH  017%=      5-min Rain = 0
KST4 141952Z 19013KT 29/01 A2987 RMK A01 T02930014  RH  017%=      5-min Rain = 0
KST4 141953Z 19014KT 29/02 A2987 RMK A01 T02920019  RH  017%=      5-min Rain = 0
KST4 141954Z 20010KT 29/02 A2986 RMK A01 T02910016  RH  017%=      5-min Rain = 0
KST4 141955Z 20013KT 29/02 A2986 RMK A01 T02920017  RH  017%=      5-min Rain = 0
KST4 141956Z 20015G20KT 29/02 A2986 RMK A01 T02940021  RH  017%=      5-min Rain = 0
KST4 141957Z 19017KT 30/03 A2986 RMK A01 T02950026  RH  018%=      5-min Rain = 0
KST4 141958Z 20017KT 30/02 A2986 RMK A01 T02950023  RH  017%=      5-min Rain = 0
KST4 141959Z 21012KT 29/01 A2986 RMK A01 T02920007  RH  016%=      5-min Rain = 0
KST4 142000Z 19008KT 29/02 A2986 RMK A01 T02900017  RH  017%=      5-min Rain = 0
KST4 142001Z 20013G18KT 29/02 A2986 RMK A01 T02910024  RH  018%=      5-min Rain = 0
KST4 142002Z 23014KT 29/01 A2986 RMK A01 T02940011  RH  016%=      5-min Rain = 0
KST4 142003Z 24016KT 30/01 A2986 RMK A01 T02970005  RH  015%=      5-min Rain = 0
KST4 142004Z 25016KT 30/00 A2986 RMK A01 T02970004  RH  015%=      5-min Rain = 0
KST4 142005Z 24012G17KT 30/M01 A2986 RMK A01 T02971006  RH  014%=      5-min Rain = 0
KST4 142006Z 23010KT 30/M00 A2986 RMK A01 T02951004  RH  014%=      5-min Rain = 0
KST4 142007Z 23008KT 29/M00 A2986 RMK A01 T02941004  RH  014%=      5-min Rain = 0
KST4 142008Z 23011G18KT 29/M01 A2986 RMK A01 T02931005  RH  014%=      5-min Rain = 0
KST4 142009Z 23016KT 29/01 A2986 RMK A01 T02940010  RH  016%=      5-min Rain = 0
KST4 142010Z 24015KT 30/01 A2986 RMK A01 T02950008  RH  016%=      5-min Rain = 0
KST4 142011Z 22012KT 29/00 A2986 RMK A01 T029300-0  RH  015%=      5-min Rain = 0
KST4 142012Z 23011KT 29/01 A2986 RMK A01 T02910006  RH  016%=      5-min Rain = 0
KST4 142013Z 22012G17KT 29/01 A2986 RMK A01 T02930012  RH  016%=      5-min Rain = 0
KST4 142014Z 21012KT 29/01 A2986 RMK A01 T02930005  RH  016%=      5-min Rain = 0
KST4 142015Z 21012KT 29/02 A2986 RMK A01 T02940015  RH  017%=      5-min Rain = 0
KST4 142016Z 22010KT 30/02 A2986 RMK A01 T02950018  RH  017%=      5-min Rain = 0
KST4 142017Z 22008KT 30/M00 A2986 RMK A01 T02951002  RH  015%=      5-min Rain = 0
KST4 142018Z 21014KT 29/01 A2986 RMK A01 T02940014  RH  016%=      5-min Rain = 0
KST4 142019Z 24013KT 29/01 A2986 RMK A01 T02940006  RH  016%=      5-min Rain = 0
KST4 142020Z 24010KT 30/01 A2986 RMK A01 T02950007  RH  016%=      5-min Rain = 0
KST4 142021Z 24012KT 30/01 A2986 RMK A01 T02960006  RH  015%=      5-min Rain = 0
KST4 142022Z 23009KT 30/00 A2986 RMK A01 T02960003  RH  015%=      5-min Rain = 0
KST4 142023Z 24006KT 30/01 A2986 RMK A01 T02950009  RH  016%=      5-min Rain = 0
KST4 142024Z 22004KT 30/02 A2985 RMK A01 T02950015  RH  017%=      5-min Rain = 0
KST4 142025Z 20004KT 30/01 A2985 RMK A01 T02970011  RH  016%=      5-min Rain = 0
KST4 142026Z 22009KT 30/01 A2985 RMK A01 T02980013  RH  016%=      5-min Rain = 0
KST4 142027Z 22010KT 30/01 A2985 RMK A01 T02980013  RH  016%=      5-min Rain = 0
KST4 142028Z 21016KT 30/01 A2985 RMK A01 T02990011  RH  016%=      5-min Rain = 0
KST4 142029Z 25017KT 30/01 A2985 RMK A01 T02980010  RH  016%=      5-min Rain = 0
KST4 142030Z 25014KT 30/00 A2985 RMK A01 T02950004  RH  015%=      5-min Rain = 0
KST4 142031Z 25012KT 29/01 A2985 RMK A01 T02940006  RH  016%=      5-min Rain = 0
KST4 142032Z 25006KT 29/00 A2985 RMK A01 T02940001  RH  015%=      5-min Rain = 0
KST4 142033Z 24008KT 30/02 A2985 RMK A01 T02960019  RH  017%=      5-min Rain = 0
KST4 142034Z 25008KT 30/00 A2985 RMK A01 T03000002  RH  015%=      5-min Rain = 0
KST4 142035Z 24010KT 30/01 A2985 RMK A01 T02990006  RH  015%=      5-min Rain = 0
KST4 142036Z 21013G21KT 30/01 A2985 RMK A01 T02980014  RH  016%=      5-min Rain = 0
KST4 142037Z 21016KT 30/02 A2985 RMK A01 T02980019  RH  017%=      5-min Rain = 0
KST4 142038Z 20015G20KT 30/02 A2985 RMK A01 T02990019  RH  017%=      5-min Rain = 0
KST4 142039Z 22018G23KT 30/02 A2985 RMK A01 T02970018  RH  017%=      5-min Rain = 0
KST4 142040Z 23019KT 30/00 A2985 RMK A01 T02960001  RH  015%=      5-min Rain = 0
KST4 142041Z 22018KT 29/M00 A2985 RMK A01 T02941002  RH  015%=      5-min Rain = 0
KST4 142042Z 22018KT 29/00 A2985 RMK A01 T02940002  RH  015%=      5-min Rain = 0
KST4 142043Z 21015KT 29/00 A2985 RMK A01 T02940000  RH  015%=      5-min Rain = 0
KST4 142044Z 22010KT 29/01 A2985 RMK A01 T02940011  RH  016%=      5-min Rain = 0
KST4 142045Z 23012KT 30/01 A2985 RMK A01 T02950005  RH  015%=      5-min Rain = 0
KST4 142046Z 22012KT 30/00 A2985 RMK A01 T02950000  RH  015%=      5-min Rain = 0
KST4 142047Z 22014KT 30/01 A2985 RMK A01 T02950012  RH  016%=      5-min Rain = 0
KST4 142048Z 23011KT 30/M01 A2985 RMK A01 T02951005  RH  014%=      5-min Rain = 0
KST4 142049Z 20009G14KT 30/02 A2985 RMK A01 T02960016  RH  017%=      5-min Rain = 0
KST4 142050Z 19013KT 30/02 A2985 RMK A01 T02980019  RH  017%=      5-min Rain = 0
KST4 142051Z 19018KT 30/01 A2985 RMK A01 T02970010  RH  016%=      5-min Rain = 0
KST4 142052Z 21014KT 30/01 A2984 RMK A01 T02950010  RH  016%=      5-min Rain = 0
KST4 142053Z 20014KT 29/01 A2984 RMK A01 T02930013  RH  016%=      5-min Rain = 0
KST4 142054Z 20015G21KT 29/02 A2984 RMK A01 T02930024  RH  018%=      5-min Rain = 0
KST4 142055Z 20016KT 30/02 A2984 RMK A01 T02950021  RH  017%=      5-min Rain = 0
KST4 142056Z 19015G21KT 30/02 A2984 RMK A01 T02950019  RH  017%=      5-min Rain = 0
KST4 142057Z 19019KT 29/02 A2984 RMK A01 T02940015  RH  017%=      5-min Rain = 0
KST4 142058Z 18019KT 29/01 A2984 RMK A01 T02930012  RH  016%=      5-min Rain = 0
KST4 142059Z 17017G22KT 29/01 A2984 RMK A01 T02910008  RH  016%=      5-min Rain = 0
KST4 142100Z 17014KT 29/00 A2984 RMK A01 T02920004  RH  015%=      5-min Rain = 0
KST4 142101Z 18011KT 29/01 A2984 RMK A01 T02940005  RH  015%=      5-min Rain = 0
KST4 142102Z 18012G17KT 29/01 A2984 RMK A01 T02940013  RH  016%=      5-min Rain = 0
KST4 142103Z 19010KT 30/01 A2984 RMK A01 T02960010  RH  016%=      5-min Rain = 0
KST4 142104Z 21010KT 30/01 A2984 RMK A01 T02960014  RH  016%=      5-min Rain = 0
KST4 142105Z 21012KT 30/01 A2984 RMK A01 T02960010  RH  016%=      5-min Rain = 0
KST4 142106Z 20009KT 30/01 A2984 RMK A01 T02950012  RH  016%=      5-min Rain = 0
KST4 142107Z 19012KT 30/01 A2984 RMK A01 T02950009  RH  016%=      5-min Rain = 0
KST4 142108Z 20014KT 29/01 A2984 RMK A01 T02940006  RH  016%=      5-min Rain = 0
KST4 142109Z 19012KT 29/01 A2984 RMK A01 T02940013  RH  016%=      5-min Rain = 0
KST4 142110Z 20015G21KT 30/02 A2984 RMK A01 T02950022  RH  017%=      5-min Rain = 0
KST4 142111Z 22019KT 30/00 A2984 RMK A01 T02970001  RH  015%=      5-min Rain = 0
KST4 142112Z 24018KT 30/M00 A2984 RMK A01 T02971001  RH  015%=      5-min Rain = 0
KST4 142113Z 24014KT 30/M01 A2984 RMK A01 T02951011  RH  014%=      5-min Rain = 0
KST4 142114Z 24010KT 29/M02 A2984 RMK A01 T02941016  RH  013%=      5-min Rain = 0
KST4 142115Z 24008KT 29/M00 A2984 RMK A01 T02941004  RH  014%=      5-min Rain = 0
KST4 142116Z 23010KT 30/00 A2984 RMK A01 T02960002  RH  015%=      5-min Rain = 0
KST4 142117Z 22015KT 30/01 A2984 RMK A01 T02970008  RH  015%=      5-min Rain = 0
KST4 142118Z 22014KT 30/01 A2984 RMK A01 T02970011  RH  016%=      5-min Rain = 0
KST4 142119Z 24014KT 30/00 A2984 RMK A01 T02950004  RH  015%=      5-min Rain = 0
KST4 142120Z 24016KT 30/M01 A2984 RMK A01 T02951005  RH  014%=      5-min Rain = 0
KST4 142121Z 25013KT 30/M01 A2984 RMK A01 T02951008  RH  014%=      5-min Rain = 0
KST4 142122Z 24013KT 30/00 A2984 RMK A01 T02960001  RH  015%=      5-min Rain = 0
KST4 142123Z 22015KT 30/00 A2984 RMK A01 T02960004  RH  015%=      5-min Rain = 0
KST4 142124Z 21016KT 30/01 A2984 RMK A01 T02950006  RH  015%=      5-min Rain = 0
KST4 142125Z 21017KT 29/01 A2984 RMK A01 T02930010  RH  016%=      5-min Rain = 0
KST4 142126Z 21013KT 29/01 A2984 RMK A01 T02910007  RH  016%=      5-min Rain = 0
KST4 142127Z 23013KT 29/01 A2984 RMK A01 T02900005  RH  016%=      5-min Rain = 0
KST4 142128Z 23012KT 29/M00 A2984 RMK A01 T02901003  RH  015%=      5-min Rain = 0
KST4 142129Z 23011KT 29/01 A2984 RMK A01 T02910006  RH  016%=      5-min Rain = 0
KST4 142130Z 23011KT 29/00 A2984 RMK A01 T02920004  RH  016%=      5-min Rain = 0
KST4 142131Z 23009KT 29/00 A2984 RMK A01 T02920001  RH  015%=      5-min Rain = 0
KST4 142132Z 23006KT 29/01 A2984 RMK A01 T02940011  RH  016%=      5-min Rain = 0
KST4 142133Z 23007KT 30/01 A2984 RMK A01 T02960011  RH  016%=      5-min Rain = 0
KST4 142134Z 24012G18KT 30/M00 A2984 RMK A01 T02991001  RH  014%=      5-min Rain = 0
KST4 142135Z 24017KT 30/M01 A2984 RMK A01 T02991011  RH  013%=      5-min Rain = 0
KST4 142136Z 24014KT 30/M01 A2984 RMK A01 T02971014  RH  013%=      5-min Rain = 0
KST4 142137Z 24015KT 30/M01 A2984 RMK A01 T02951009  RH  014%=      5-min Rain = 0
KST4 142138Z 24015KT 30/M01 A2984 RMK A01 T02951005  RH  014%=      5-min Rain = 0
KST4 142139Z 24013KT 29/M01 A2984 RMK A01 T02941010  RH  014%=      5-min Rain = 0
KST4 142140Z 24013KT 29/M01 A2984 RMK A01 T02931010  RH  014%=      5-min Rain = 0
KST4 142141Z 25012KT 29/M01 A2984 RMK A01 T02921008  RH  014%=      5-min Rain = 0
KST4 142142Z 24012KT 29/M01 A2984 RMK A01 T02931010  RH  014%=      5-min Rain = 0
KST4 142143Z 22011KT 29/00 A2984 RMK A01 T02940002  RH  015%=      5-min Rain = 0
KST4 142144Z 23014KT 30/M01 A2984 RMK A01 T02951005  RH  014%=      5-min Rain = 0
KST4 142145Z 21015KT 30/M00 A2984 RMK A01 T02951003  RH  015%=      5-min Rain = 0
KST4 142146Z 21015KT 29/01 A2984 RMK A01 T02930006  RH  016%=      5-min Rain = 0
KST4 142147Z 21015KT 29/00 A2984 RMK A01 T02920002  RH  015%=      5-min Rain = 0
KST4 142148Z 21017G22KT 29/00 A2984 RMK A01 T02910002  RH  015%=      5-min Rain = 0
KST4 142149Z 21013KT 29/M01 A2984 RMK A01 T02901009  RH  014%=      5-min Rain = 0
KST4 142150Z 21014KT 29/M00 A2984 RMK A01 T02901003  RH  015%=      5-min Rain = 0
KST4 142151Z 19012KT 29/M00 A2984 RMK A01 T02901004  RH  015%=      5-min Rain = 0
KST4 142152Z 18018G24KT 29/00 A2983 RMK A01 T02920000  RH  015%=      5-min Rain = 0
KST4 142153Z 20020KT 29/M00 A2983 RMK A01 T02921003  RH  015%=      5-min Rain = 0
KST4 142154Z 20017KT 29/00 A2983 RMK A01 T029200-0  RH  015%=      5-min Rain = 0
KST4 142155Z 21017KT 29/01 A2983 RMK A01 T02910009  RH  016%=      5-min Rain = 0
KST4 142156Z 20019KT 29/01 A2983 RMK A01 T02900006  RH  016%=      5-min Rain = 0
KST4 142157Z 19017KT 29/01 A2983 RMK A01 T02890005  RH  016%=      5-min Rain = 0
KST4 142158Z 18013KT 29/00 A2983 RMK A01 T02880001  RH  016%=      5-min Rain = 0
KST4 142159Z 19013KT 29/01 A2984 RMK A01 T02870005  RH  016%=      5-min Rain = 0
KST4 142200Z 20012KT 29/00 A2984 RMK A01 T02880004  RH  016%=      5-min Rain = 0
KST4 142201Z 20015KT 29/00 A2983 RMK A01 T02890002  RH  016%=      5-min Rain = 0
KST4 142202Z 19015KT 29/00 A2983 RMK A01 T029000-0  RH  015%=      5-min Rain = 0
KST4 142203Z 20014KT 29/M00 A2983 RMK A01 T02901004  RH  015%=      5-min Rain = 0
KST4 142204Z 21015KT 29/M00 A2983 RMK A01 T02891003  RH  015%=      5-min Rain = 0
KST4 142205Z 23016KT 29/M00 A2984 RMK A01 T02891001  RH  015%=      5-min Rain = 0
KST4 142206Z 22015KT 29/M01 A2984 RMK A01 T02891007  RH  015%=      5-min Rain = 0
KST4 142207Z 22015KT 29/M01 A2984 RMK A01 T02891012  RH  014%=      5-min Rain = 0
KST4 142208Z 22013KT 29/M01 A2984 RMK A01 T02881009  RH  014%=      5-min Rain = 0
KST4 142209Z 23013KT 29/M00 A2984 RMK A01 T02881001  RH  015%=      5-min Rain = 0
KST4 142210Z 23015KT 29/M01 A2984 RMK A01 T02881014  RH  014%=      5-min Rain = 0
KST4 142211Z 23021KT 29/M02 A2983 RMK A01 T02891023  RH  013%=      5-min Rain = 0
KST4 142212Z 22019KT 29/M02 A2984 RMK A01 T02891022  RH  013%=      5-min Rain = 0
KST4 142213Z 22017KT 29/M02 A2984 RMK A01 T02881020  RH  013%=      5-min Rain = 0
KST4 142214Z 22016KT 29/M02 A2984 RMK A01 T02861022  RH  013%=      5-min Rain = 0
KST4 142215Z 23014KT 29/M02 A2984 RMK A01 T02861017  RH  014%=      5-min Rain = 0
KST4 142216Z 21014KT 29/M02 A2984 RMK A01 T02861024  RH  013%=      5-min Rain = 0
KST4 142217Z 22015KT 29/M02 A2984 RMK A01 T02861019  RH  014%=      5-min Rain = 0
KST4 142218Z 24018KT 29/M02 A2984 RMK A01 T02871022  RH  013%=      5-min Rain = 0
KST4 142219Z 24016G21KT 29/M03 A2984 RMK A01 T02871027  RH  013%=      5-min Rain = 0
KST4 142220Z 23016KT 29/M02 A2984 RMK A01 T02871023  RH  013%=      5-min Rain = 0
KST4 142221Z 24015KT 29/M03 A2984 RMK A01 T02871025  RH  013%=      5-min Rain = 0
KST4 142222Z 24014KT 29/M02 A2984 RMK A01 T02871021  RH  013%=      5-min Rain = 0
KST4 142223Z 24014G19KT 29/M02 A2984 RMK A01 T02871022  RH  013%=      5-min Rain = 0
KST4 142224Z 24017KT 29/M02 A2984 RMK A01 T02871016  RH  014%=      5-min Rain = 0
KST4 142225Z 24016KT 29/M02 A2984 RMK A01 T02871019  RH  013%=      5-min Rain = 0
KST4 142226Z 23017KT 29/M02 A2984 RMK A01 T02861022  RH  013%=      5-min Rain = 0
KST4 142227Z 23014KT 29/M02 A2984 RMK A01 T02861021  RH  013%=      5-min Rain = 0
KST4 142228Z 23013KT 29/M02 A2984 RMK A01 T02851022  RH  013%=      5-min Rain = 0
KST4 142229Z 23015KT 29/M02 A2984 RMK A01 T02851020  RH  014%=      5-min Rain = 0
KST4 142230Z 23014KT 29/M02 A2984 RMK A01 T02851016  RH  014%=      5-min Rain = 0
KST4 142231Z 22016G22KT 28/M01 A2984 RMK A01 T02841011  RH  015%=      5-min Rain = 0
KST4 142232Z 22018KT 28/M01 A2984 RMK A01 T02841012  RH  014%=      5-min Rain = 0
KST4 142233Z 22016KT 28/M01 A2984 RMK A01 T02821010  RH  015%=      5-min Rain = 0
KST4 142234Z 22018KT 28/M02 A2984 RMK A01 T02821015  RH  014%=      5-min Rain = 0
KST4 142235Z 23017KT 28/M01 A2984 RMK A01 T02821013  RH  014%=      5-min Rain = 0
KST4 142236Z 22013KT 28/M00 A2984 RMK A01 T02821002  RH  016%=      5-min Rain = 0
KST4 142237Z 22017KT 28/M00 A2984 RMK A01 T02821002  RH  016%=      5-min Rain = 0
KST4 142238Z 22016KT 28/M01 A2984 RMK A01 T02821010  RH  015%=      5-min Rain = 0
KST4 142239Z 21016KT 28/M01 A2984 RMK A01 T02821005  RH  015%=      5-min Rain = 0
KST4 142240Z 21015KT 28/M01 A2984 RMK A01 T02811007  RH  015%=      5-min Rain = 0
KST4 142241Z 21012KT 28/M00 A2984 RMK A01 T02801004  RH  016%=      5-min Rain = 0
KST4 142242Z 22013KT 28/M00 A2984 RMK A01 T02791002  RH  016%=      5-min Rain = 0
KST4 142243Z 21017G22KT 28/M01 A2984 RMK A01 T02791009  RH  015%=      5-min Rain = 0
KST4 142244Z 21017KT 28/M01 A2984 RMK A01 T02791011  RH  015%=      5-min Rain = 0
KST4 142245Z 20015KT 28/M01 A2984 RMK A01 T02791005  RH  016%=      5-min Rain = 0
KST4 142246Z 20017KT 28/M00 A2984 RMK A01 T02781002  RH  016%=      5-min Rain = 0
KST4 142247Z 19017KT 28/M01 A2984 RMK A01 T02761007  RH  016%=      5-min Rain = 0
KST4 142248Z 19014KT 28/M01 A2984 RMK A01 T02761005  RH  016%=      5-min Rain = 0
KST4 142249Z 19013KT 28/M00 A2984 RMK A01 T02761003  RH  016%=      5-min Rain = 0
KST4 142250Z 20016KT 28/M01 A2984 RMK A01 T02751008  RH  016%=      5-min Rain = 0
KST4 142251Z 19016KT 28/M01 A2984 RMK A01 T02761011  RH  015%=      5-min Rain = 0
KST4 142252Z 20014KT 28/M02 A2984 RMK A01 T02761015  RH  015%=      5-min Rain = 0
KST4 142253Z 19013G18KT 28/M00 A2984 RMK A01 T02771001  RH  016%=      5-min Rain = 0
KST4 142254Z 19015KT 28/M01 A2984 RMK A01 T02761005  RH  016%=      5-min Rain = 0
KST4 142255Z 21014KT 28/M01 A2984 RMK A01 T02761005  RH  016%=      5-min Rain = 0
KST4 142256Z 21012KT 28/M01 A2984 RMK A01 T02761012  RH  015%=      5-min Rain = 0
KST4 142257Z 23012KT 28/M01 A2984 RMK A01 T02771007  RH  016%=      5-min Rain = 0
KST4 142258Z 24018KT 28/M01 A2984 RMK A01 T02771013  RH  015%=      5-min Rain = 0
KST4 142259Z 23016KT 28/M02 A2984 RMK A01 T02781015  RH  015%=      5-min Rain = 0
KST4 142300Z 23014KT 28/M01 A2984 RMK A01 T02781010  RH  015%=      5-min Rain = 0
KST4 142301Z 23013KT 28/M01 A2984 RMK A01 T02771008  RH  016%=      5-min Rain = 0
KST4 142302Z 22014KT 28/M01 A2984 RMK A01 T02761009  RH  016%=      5-min Rain = 0
KST4 142303Z 22014KT 28/M01 A2984 RMK A01 T02751009  RH  016%=      5-min Rain = 0
KST4 142304Z 21012KT 28/M00 A2984 RMK A01 T02751003  RH  016%=      5-min Rain = 0
KST4 142305Z 22012KT 27/M00 A2984 RMK A01 T02741004  RH  016%=      5-min Rain = 0
KST4 142306Z 21013G18KT 27/M01 A2984 RMK A01 T02731009  RH  016%=      5-min Rain = 0
KST4 142307Z 21016KT 27/M01 A2984 RMK A01 T02731011  RH  016%=      5-min Rain = 0
KST4 142308Z 21015KT 27/M01 A2984 RMK A01 T02731010  RH  016%=      5-min Rain = 0
KST4 142309Z 21016KT 27/M01 A2984 RMK A01 T02731009  RH  016%=      5-min Rain = 0
KST4 142310Z 22017KT 27/M01 A2984 RMK A01 T02721011  RH  016%=      5-min Rain = 0
KST4 142311Z 22016KT 27/M02 A2984 RMK A01 T02721017  RH  015%=      5-min Rain = 0
KST4 142312Z 22014KT 27/M01 A2984 RMK A01 T02731012  RH  015%=      5-min Rain = 0
KST4 142313Z 22013KT 27/M01 A2984 RMK A01 T02721013  RH  015%=      5-min Rain = 0
KST4 142314Z 22012KT 27/M01 A2984 RMK A01 T02721007  RH  016%=      5-min Rain = 0
KST4 142315Z 22011KT 27/M01 A2984 RMK A01 T02711006  RH  016%=      5-min Rain = 0
KST4 142316Z 21016KT 27/M01 A2984 RMK A01 T02691008  RH  016%=      5-min Rain = 0
KST4 142317Z 22016KT 27/M02 A2984 RMK A01 T02691015  RH  015%=      5-min Rain = 0
KST4 142318Z 22015KT 27/M01 A2984 RMK A01 T02701011  RH  016%=      5-min Rain = 0
KST4 142319Z 22016KT 27/M01 A2984 RMK A01 T02711013  RH  015%=      5-min Rain = 0
KST4 142320Z 22014KT 27/M01 A2984 RMK A01 T02701009  RH  016%=      5-min Rain = 0
KST4 142321Z 22012KT 27/M01 A2984 RMK A01 T02691006  RH  017%=      5-min Rain = 0
KST4 142322Z 22013KT 27/M00 A2984 RMK A01 T02671004  RH  017%=      5-min Rain = 0
KST4 142323Z 22013KT 27/M01 A2984 RMK A01 T02661007  RH  017%=      5-min Rain = 0
KST4 142324Z 22012KT 27/M01 A2984 RMK A01 T02651006  RH  017%=      5-min Rain = 0
KST4 142325Z 21013KT 26/M00 A2984 RMK A01 T02641003  RH  017%=      5-min Rain = 0
KST4 142326Z 22013KT 26/M01 A2984 RMK A01 T02631009  RH  017%=      5-min Rain = 0
KST4 142327Z 21012KT 26/M01 A2984 RMK A01 T02631005  RH  017%=      5-min Rain = 0
KST4 142328Z 22013KT 26/M01 A2984 RMK A01 T02631008  RH  017%=      5-min Rain = 0
KST4 142329Z 22012KT 26/M01 A2984 RMK A01 T02631006  RH  017%=      5-min Rain = 0
KST4 142330Z 22013KT 26/M01 A2984 RMK A01 T02631014  RH  016%=      5-min Rain = 0
KST4 142331Z 22013KT 26/M02 A2984 RMK A01 T02631015  RH  016%=      5-min Rain = 0
KST4 142332Z 22013KT 26/M01 A2984 RMK A01 T02641011  RH  016%=      5-min Rain = 0
KST4 142333Z 22013KT 26/M01 A2984 RMK A01 T02631013  RH  016%=      5-min Rain = 0
KST4 142334Z 22011KT 26/M01 A2984 RMK A01 T02611013  RH  016%=      5-min Rain = 0
KST4 142335Z 22011KT 26/M01 A2984 RMK A01 T02601011  RH  017%=      5-min Rain = 0
KST4 142336Z 22012KT 26/M01 A2984 RMK A01 T02581009  RH  017%=      5-min Rain = 0
KST4 142337Z 22012KT 26/M01 A2984 RMK A01 T02571013  RH  017%=      5-min Rain = 0
KST4 142338Z 22012KT 26/M01 A2984 RMK A01 T02571012  RH  017%=      5-min Rain = 0
KST4 142339Z 22011KT 26/M01 A2984 RMK A01 T02571013  RH  017%=      5-min Rain = 0
KST4 142340Z 22010KT 26/M01 A2984 RMK A01 T02561009  RH  017%=      5-min Rain = 0
KST4 142341Z 22010KT 25/M01 A2984 RMK A01 T02531008  RH  018%=      5-min Rain = 0
KST4 142342Z 22010KT 25/M01 A2984 RMK A01 T02521007  RH  018%=      5-min Rain = 0
KST4 142343Z 22010KT 25/M01 A2984 RMK A01 T02501008  RH  018%=      5-min Rain = 0
KST4 142344Z 22010KT 25/M01 A2984 RMK A01 T02491006  RH  019%=      5-min Rain = 0
KST4 142345Z 22010KT 25/M01 A2984 RMK A01 T02481009  RH  018%=      5-min Rain = 0
KST4 142346Z 22011KT 25/M01 A2984 RMK A01 T02471007  RH  019%=      5-min Rain = 0
KST4 142347Z 22010KT 25/M01 A2984 RMK A01 T02471008  RH  019%=      5-min Rain = 0
KST4 142348Z 22010KT 25/M01 A2984 RMK A01 T02461006  RH  019%=      5-min Rain = 0
KST4 142349Z 22010KT 24/M01 A2984 RMK A01 T02441005  RH  019%=      5-min Rain = 0
KST4 142350Z 22010KT 24/M01 A2984 RMK A01 T02431005  RH  019%=      5-min Rain = 0
KST4 142351Z 22010KT 24/M00 A2984 RMK A01 T02411003  RH  020%=      5-min Rain = 0
KST4 142352Z 21009KT 24/M00 A2984 RMK A01 T02401001  RH  020%=      5-min Rain = 0
KST4 142353Z 22009KT 24/00 A2984 RMK A01 T023700-0  RH  021%=      5-min Rain = 0
KST4 142354Z 22009KT 24/M00 A2984 RMK A01 T02351001  RH  021%=      5-min Rain = 0
KST4 142355Z 21009KT 23/00 A2984 RMK A01 T023300-0  RH  021%=      5-min Rain = 0
KST4 142356Z 21008KT 23/00 A2984 RMK A01 T02310000  RH  022%=      5-min Rain = 0
KST4 142357Z 21009KT 23/00 A2984 RMK A01 T02290001  RH  022%=      5-min Rain = 0
KST4 142358Z 21008KT 23/00 A2984 RMK A01 T02270002  RH  022%=      5-min Rain = 0
KST4 142359Z 21008KT 23/00 A2984 RMK A01 T02250003  RH  023%=      5-min Rain = 0
KST4 150000Z 21009KT 22/00 A2984 RMK A01 T02240003  RH  023%=      5-min Rain = 0
KST4 150001Z 21008KT 22/00 A2984 RMK A01 T02220003  RH  023%=      5-min Rain = 0
KST4 150002Z 21008KT 22/01 A2984 RMK A01 T02200005  RH  024%=      5-min Rain = 0
KST4 150003Z 20008KT 22/01 A2984 RMK A01 T02170006  RH  025%=      5-min Rain = 0
KST4 150004Z 20008KT 21/01 A2984 RMK A01 T02140007  RH  025%=      5-min Rain = 0
KST4 150005Z 20008KT 21/01 A2984 RMK A01 T02120007  RH  026%=      5-min Rain = 0
KST4 150006Z 20008KT 21/01 A2984 RMK A01 T02100006  RH  026%=      5-min Rain = 0
KST4 150007Z 20008KT 21/01 A2984 RMK A01 T02090007  RH  026%=      5-min Rain = 0
KST4 150008Z 20008KT 21/01 A2984 RMK A01 T02070007  RH  026%=      5-min Rain = 0
KST4 150009Z 20008KT 21/01 A2984 RMK A01 T02050008  RH  027%=      5-min Rain = 0
KST4 150010Z 20008KT 20/01 A2984 RMK A01 T02030009  RH  027%=      5-min Rain = 0
KST4 150011Z 20008KT 20/01 A2984 RMK A01 T02020010  RH  028%=      5-min Rain = 0
KST4 150012Z 20007KT 20/01 A2984 RMK A01 T02000011  RH  028%=      5-min Rain = 0
KST4 150013Z 20007KT 20/01 A2984 RMK A01 T01980012  RH  029%=      5-min Rain = 0
KST4 150014Z 20007KT 20/01 A2984 RMK A01 T01970011  RH  029%=      5-min Rain = 0
KST4 150015Z 20007KT 20/01 A2984 RMK A01 T01960011  RH  029%=      5-min Rain = 0
KST4 150016Z 19008KT 20/01 A2984 RMK A01 T01950011  RH  029%=      5-min Rain = 0
KST4 150017Z 19008KT 19/01 A2984 RMK A01 T01930013  RH  030%=      5-min Rain = 0
KST4 150018Z 19008KT 19/02 A2984 RMK A01 T01920015  RH  031%=      5-min Rain = 0
KST4 150019Z 18008KT 19/02 A2985 RMK A01 T01900017  RH  031%=      5-min Rain = 0
KST4 150020Z 18007KT 19/02 A2985 RMK A01 T01880016  RH  032%=      5-min Rain = 0
KST4 150021Z 18007KT 19/02 A2985 RMK A01 T01860015  RH  032%=      5-min Rain = 0
KST4 150022Z 18007KT 18/01 A2985 RMK A01 T01840014  RH  032%=      5-min Rain = 0
KST4 150023Z 19008KT 18/02 A2985 RMK A01 T01820015  RH  033%=      5-min Rain = 0
KST4 150024Z 19008KT 18/01 A2985 RMK A01 T01810014  RH  033%=      5-min Rain = 0
KST4 150025Z 18008KT 18/01 A2985 RMK A01 T01800011  RH  032%=      5-min Rain = 0
KST4 150026Z 19009KT 18/01 A2985 RMK A01 T01800010  RH  032%=      5-min Rain = 0
KST4 150027Z 19009KT 18/01 A2985 RMK A01 T01790008  RH  032%=      5-min Rain = 0
KST4 150028Z 19009KT 18/01 A2985 RMK A01 T01800008  RH  031%=      5-min Rain = 0
KST4 150029Z 19009KT 18/01 A2985 RMK A01 T01800007  RH  031%=      5-min Rain = 0
KST4 150030Z 19009KT 18/01 A2985 RMK A01 T01810008  RH  031%=      5-min Rain = 0
KST4 150031Z 19009KT 18/01 A2985 RMK A01 T01800009  RH  032%=      5-min Rain = 0
KST4 150032Z 19009KT 18/01 A2985 RMK A01 T01790010  RH  032%=      5-min Rain = 0
KST4 150033Z 19009KT 18/01 A2985 RMK A01 T01780011  RH  032%=      5-min Rain = 0
KST4 150034Z 19009KT 18/01 A2985 RMK A01 T01770013  RH  033%=      5-min Rain = 0
KST4 150035Z 19009KT 18/01 A2985 RMK A01 T01760014  RH  034%=      5-min Rain = 0
KST4 150036Z 19009KT 17/01 A2985 RMK A01 T01740014  RH  034%=      5-min Rain = 0
KST4 150037Z 19009KT 17/02 A2985 RMK A01 T01730015  RH  034%=      5-min Rain = 0
KST4 150038Z 19009KT 17/02 A2985 RMK A01 T01720015  RH  035%=      5-min Rain = 0
KST4 150039Z 19008KT 17/02 A2985 RMK A01 T01710015  RH  035%=      5-min Rain = 0
KST4 150040Z 19008KT 17/02 A2985 RMK A01 T01690017  RH  036%=      5-min Rain = 0
KST4 150041Z 19008KT 17/02 A2985 RMK A01 T01670018  RH  036%=      5-min Rain = 0
KST4 150042Z 20008KT 17/02 A2985 RMK A01 T01660018  RH  037%=      5-min Rain = 0
KST4 150043Z 20007KT 17/02 A2985 RMK A01 T01650017  RH  037%=      5-min Rain = 0
KST4 150044Z 20008KT 17/01 A2985 RMK A01 T01650014  RH  036%=      5-min Rain = 0
KST4 150045Z 20008KT 17/01 A2985 RMK A01 T01650009  RH  035%=      5-min Rain = 0
KST4 150046Z 20008KT 17/01 A2985 RMK A01 T01650008  RH  035%=      5-min Rain = 0
KST4 150047Z 20008KT 17/01 A2985 RMK A01 T01650010  RH  035%=      5-min Rain = 0
KST4 150048Z 20008KT 16/01 A2985 RMK A01 T01630011  RH  036%=      5-min Rain = 0
KST4 150049Z 20008KT 16/01 A2985 RMK A01 T01620012  RH  036%=      5-min Rain = 0
KST4 150050Z 20008KT 16/02 A2985 RMK A01 T01610015  RH  037%=      5-min Rain = 0
KST4 150051Z 20008KT 16/02 A2985 RMK A01 T01590016  RH  038%=      5-min Rain = 0
KST4 150052Z 19008KT 16/02 A2985 RMK A01 T01570017  RH  039%=      5-min Rain = 0
KST4 150053Z 20008KT 16/02 A2985 RMK A01 T01550018  RH  040%=      5-min Rain = 0
KST4 150054Z 20008KT 15/02 A2985 RMK A01 T01530019  RH  040%=      5-min Rain = 0
KST4 150055Z 20008KT 15/02 A2985 RMK A01 T01530019  RH  040%=      5-min Rain = 0
KST4 150056Z 20009KT 15/02 A2985 RMK A01 T01530019  RH  040%=      5-min Rain = 0
KST4 150057Z 20009KT 15/02 A2985 RMK A01 T01520017  RH  040%=      5-min Rain = 0
KST4 150058Z 20009KT 15/02 A2985 RMK A01 T01530017  RH  040%=      5-min Rain = 0
KST4 150059Z 20009KT 15/02 A2985 RMK A01 T01530017  RH  040%=      5-min Rain = 0
KST4 150100Z 20009KT 15/02 A2985 RMK A01 T01530017  RH  040%=      5-min Rain = 0
KST4 150101Z 20009KT 15/02 A2985 RMK A01 T01520018  RH  040%=      5-min Rain = 0
KST4 150102Z 19010KT 15/02 A2985 RMK A01 T01510018  RH  041%=      5-min Rain = 0
KST4 150103Z 20010KT 15/02 A2985 RMK A01 T01510017  RH  040%=      5-min Rain = 0
KST4 150104Z 20010KT 15/02 A2985 RMK A01 T01510017  RH  040%=      5-min Rain = 0
KST4 150105Z 20010KT 15/02 A2985 RMK A01 T01530017  RH  040%=      5-min Rain = 0
KST4 150106Z 20010KT 16/02 A2985 RMK A01 T01560017  RH  039%=      5-min Rain = 0
KST4 150107Z 20010KT 16/02 A2985 RMK A01 T01580018  RH  039%=      5-min Rain = 0
KST4 150108Z 20010KT 16/02 A2985 RMK A01 T01580017  RH  039%=      5-min Rain = 0
KST4 150109Z 20010KT 16/02 A2985 RMK A01 T01590018  RH  039%=      5-min Rain = 0
KST4 150110Z 20009KT 16/02 A2985 RMK A01 T01580017  RH  038%=      5-min Rain = 0
KST4 150111Z 20009KT 16/02 A2985 RMK A01 T01570017  RH  039%=      5-min Rain = 0
KST4 150112Z 20009KT 16/02 A2985 RMK A01 T01560016  RH  039%=      5-min Rain = 0
KST4 150113Z 20010KT 16/02 A2985 RMK A01 T01550016  RH  039%=      5-min Rain = 0
KST4 150114Z 20009KT 15/02 A2986 RMK A01 T01540015  RH  039%=      5-min Rain = 0
KST4 150115Z 20010KT 15/02 A2986 RMK A01 T01540016  RH  039%=      5-min Rain = 0
KST4 150116Z 20010KT 15/02 A2986 RMK A01 T01540016  RH  039%=      5-min Rain = 0
KST4 150117Z 20010KT 15/02 A2986 RMK A01 T01530016  RH  040%=      5-min Rain = 0
KST4 150118Z 20010KT 15/02 A2986 RMK A01 T01530016  RH  039%=      5-min Rain = 0
KST4 150119Z 20010KT 15/02 A2986 RMK A01 T01540016  RH  039%=      5-min Rain = 0
KST4 150120Z 20010KT 15/02 A2986 RMK A01 T01530017  RH  040%=      5-min Rain = 0
KST4 150121Z 20010KT 15/02 A2986 RMK A01 T01530017  RH  040%=      5-min Rain = 0
KST4 150122Z 20010KT 15/02 A2986 RMK A01 T01530017  RH  040%=      5-min Rain = 0
KST4 150123Z 20010KT 15/02 A2986 RMK A01 T01520017  RH  040%=      5-min Rain = 0
KST4 150124Z 20011KT 15/02 A2986 RMK A01 T01520017  RH  040%=      5-min Rain = 0
KST4 150125Z 20011KT 15/02 A2986 RMK A01 T01510018  RH  040%=      5-min Rain = 0
KST4 150126Z 20010KT 15/02 A2986 RMK A01 T01510018  RH  040%=      5-min Rain = 0
KST4 150127Z 20010KT 15/02 A2986 RMK A01 T01520017  RH  040%=      5-min Rain = 0
KST4 150128Z 20010KT 15/02 A2986 RMK A01 T01510017  RH  040%=      5-min Rain = 0
KST4 150129Z 20010KT 15/02 A2986 RMK A01 T01510017  RH  040%=      5-min Rain = 0
KST4 150130Z 20009KT 15/02 A2986 RMK A01 T01510017  RH  040%=      5-min Rain = 0
KST4 150131Z 20010KT 15/02 A2986 RMK A01 T01500017  RH  040%=      5-min Rain = 0
KST4 150132Z 20009KT 15/02 A2986 RMK A01 T01490017  RH  041%=      5-min Rain = 0
KST4 150133Z 19010KT 15/02 A2986 RMK A01 T01490017  RH  041%=      5-min Rain = 0
KST4 150134Z 20010KT 15/02 A2986 RMK A01 T01490016  RH  041%=      5-min Rain = 0
KST4 150135Z 19010KT 15/02 A2986 RMK A01 T01500016  RH  040%=      5-min Rain = 0
KST4 150136Z 19010KT 15/02 A2986 RMK A01 T01510017  RH  040%=      5-min Rain = 0
KST4 150137Z 19010KT 15/02 A2986 RMK A01 T01520017  RH  040%=      5-min Rain = 0
KST4 150138Z 20010KT 15/02 A2986 RMK A01 T01540017  RH  040%=      5-min Rain = 0
KST4 150139Z 20010KT 16/02 A2986 RMK A01 T01560018  RH  039%=      5-min Rain = 0
KST4 150140Z 20010KT 16/02 A2986 RMK A01 T01560018  RH  039%=      5-min Rain = 0
KST4 150141Z 20010KT 16/02 A2986 RMK A01 T01570018  RH  039%=      5-min Rain = 0
KST4 150142Z 19010KT 16/02 A2986 RMK A01 T01570018  RH  039%=      5-min Rain = 0
KST4 150143Z 19009KT 16/02 A2986 RMK A01 T01580018  RH  039%=      5-min Rain = 0
KST4 150144Z 19009KT 16/02 A2986 RMK A01 T01580018  RH  039%=      5-min Rain = 0
KST4 150145Z 20009KT 16/02 A2986 RMK A01 T01580019  RH  039%=      5-min Rain = 0
KST4 150146Z 19009KT 16/02 A2986 RMK A01 T01570018  RH  039%=      5-min Rain = 0
KST4 150147Z 19009KT 16/02 A2986 RMK A01 T01560017  RH  039%=      5-min Rain = 0
KST4 150148Z 19009KT 16/02 A2986 RMK A01 T01570016  RH  039%=      5-min Rain = 0
KST4 150149Z 19009KT 16/02 A2986 RMK A01 T01570017  RH  039%=      5-min Rain = 0
KST4 150150Z 19009KT 16/02 A2986 RMK A01 T01570017  RH  039%=      5-min Rain = 0
KST4 150151Z 20009KT 16/02 A2986 RMK A01 T01570017  RH  039%=      5-min Rain = 0
KST4 150152Z 19009KT 16/02 A2986 RMK A01 T01550018  RH  040%=      5-min Rain = 0
KST4 150153Z 19009KT 15/02 A2986 RMK A01 T01530019  RH  041%=      5-min Rain = 0
KST4 150154Z 19009KT 15/02 A2986 RMK A01 T01500021  RH  042%=      5-min Rain = 0
KST4 150155Z 20008KT 15/02 A2986 RMK A01 T01480021  RH  042%=      5-min Rain = 0
KST4 150156Z 20008KT 15/02 A2986 RMK A01 T01460022  RH  043%=      5-min Rain = 0
KST4 150157Z 20008KT 14/02 A2986 RMK A01 T01440022  RH  044%=      5-min Rain = 0
KST4 150158Z 20008KT 14/02 A2986 RMK A01 T01420021  RH  044%=      5-min Rain = 0
KST4 150159Z 21008KT 14/02 A2986 RMK A01 T01410021  RH  044%=      5-min Rain = 0
KST4 150200Z 21008KT 14/02 A2986 RMK A01 T01400022  RH  045%=      5-min Rain = 0
KST4 150201Z 20008KT 14/02 A2986 RMK A01 T01380021  RH  045%=      5-min Rain = 0
KST4 150202Z 21009KT 14/02 A2986 RMK A01 T01370020  RH  045%=      5-min Rain = 0
KST4 150203Z 21009KT 14/02 A2986 RMK A01 T01370019  RH  045%=      5-min Rain = 0
KST4 150204Z 21009KT 14/02 A2986 RMK A01 T01370020  RH  045%=      5-min Rain = 0
KST4 150205Z 21008KT 14/02 A2986 RMK A01 T01370021  RH  046%=      5-min Rain = 0
KST4 150206Z 21008KT 14/02 A2986 RMK A01 T01360022  RH  046%=      5-min Rain = 0
KST4 150207Z 21008KT 14/02 A2986 RMK A01 T01350021  RH  046%=      5-min Rain = 0
KST4 150208Z 21008KT 13/02 A2986 RMK A01 T01340020  RH  046%=      5-min Rain = 0
KST4 150209Z 21009KT 13/02 A2986 RMK A01 T01340019  RH  045%=      5-min Rain = 0
KST4 150210Z 21008KT 14/02 A2986 RMK A01 T01350018  RH  045%=      5-min Rain = 0
KST4 150211Z 21008KT 14/02 A2986 RMK A01 T01350018  RH  045%=      5-min Rain = 0
KST4 150212Z 21008KT 13/02 A2986 RMK A01 T01340018  RH  045%=      5-min Rain = 0
KST4 150213Z 21008KT 13/02 A2986 RMK A01 T01330017  RH  045%=      5-min Rain = 0
KST4 150214Z 21009KT 13/02 A2986 RMK A01 T01330016  RH  045%=      5-min Rain = 0
KST4 150215Z 21009KT 14/02 A2986 RMK A01 T01350015  RH  044%=      5-min Rain = 0
KST4 150216Z 21009KT 14/02 A2986 RMK A01 T01370015  RH  044%=      5-min Rain = 0
KST4 150217Z 21009KT 14/02 A2986 RMK A01 T01380016  RH  043%=      5-min Rain = 0
KST4 150218Z 21010KT 14/02 A2986 RMK A01 T01380016  RH  043%=      5-min Rain = 0
KST4 150219Z 21010KT 14/02 A2986 RMK A01 T01390016  RH  043%=      5-min Rain = 0
KST4 150220Z 21010KT 14/02 A2986 RMK A01 T01410015  RH  043%=      5-min Rain = 0
KST4 150221Z 21010KT 14/02 A2986 RMK A01 T01420016  RH  042%=      5-min Rain = 0
KST4 150222Z 21010KT 14/02 A2986 RMK A01 T01430016  RH  042%=      5-min Rain = 0
KST4 150223Z 21010KT 14/02 A2986 RMK A01 T01440016  RH  042%=      5-min Rain = 0
KST4 150224Z 21010KT 14/02 A2986 RMK A01 T01440016  RH  042%=      5-min Rain = 0
KST4 150225Z 21010KT 15/02 A2986 RMK A01 T01450017  RH  042%=      5-min Rain = 0
KST4 150226Z 21009KT 15/02 A2986 RMK A01 T01450017  RH  042%=      5-min Rain = 0
KST4 150227Z 21009KT 15/02 A2986 RMK A01 T01450017  RH  042%=      5-min Rain = 0
KST4 150228Z 21009KT 14/02 A2986 RMK A01 T01440017  RH  042%=      5-min Rain = 0
KST4 150229Z 21009KT 14/02 A2986 RMK A01 T01430017  RH  042%=      5-min Rain = 0
KST4 150230Z 22009KT 14/02 A2986 RMK A01 T01420017  RH  043%=      5-min Rain = 0
KST4 150231Z 21009KT 14/02 A2986 RMK A01 T01410016  RH  043%=      5-min Rain = 0
KST4 150232Z 21010KT 14/02 A2986 RMK A01 T01420016  RH  043%=      5-min Rain = 0
KST4 150233Z 22010KT 14/02 A2986 RMK A01 T01420016  RH  042%=      5-min Rain = 0
KST4 150234Z 21010KT 14/02 A2986 RMK A01 T01420017  RH  042%=      5-min Rain = 0
KST4 150235Z 21010KT 14/02 A2986 RMK A01 T01430017  RH  042%=      5-min Rain = 0
KST4 150236Z 22010KT 14/02 A2986 RMK A01 T01440017  RH  042%=      5-min Rain = 0
KST4 150237Z 22010KT 14/02 A2986 RMK A01 T01440017  RH  042%=      5-min Rain = 0
KST4 150238Z 22010KT 14/02 A2986 RMK A01 T01440018  RH  042%=      5-min Rain = 0
KST4 150239Z 22011KT 15/02 A2986 RMK A01 T01450017  RH  042%=      5-min Rain = 0
KST4 150240Z 21010KT 15/02 A2987 RMK A01 T01460018  RH  042%=      5-min Rain = 0
KST4 150241Z 21010KT 15/02 A2987 RMK A01 T01480018  RH  041%=      5-min Rain = 0
KST4 150242Z 21010KT 15/02 A2987 RMK A01 T01480018  RH  041%=      5-min Rain = 0
KST4 150243Z 22010KT 15/02 A2987 RMK A01 T01480017  RH  041%=      5-min Rain = 0
KST4 150244Z 21010KT 15/02 A2987 RMK A01 T01480018  RH  041%=      5-min Rain = 0
KST4 150245Z 22010KT 15/02 A2987 RMK A01 T01480017  RH  041%=      5-min Rain = 0
KST4 150246Z 21010KT 15/02 A2987 RMK A01 T01480016  RH  041%=      5-min Rain = 0
KST4 150247Z 21011KT 15/02 A2987 RMK A01 T01480016  RH  041%=      5-min Rain = 0
KST4 150248Z 21010KT 15/02 A2987 RMK A01 T01480016  RH  041%=      5-min Rain = 0
KST4 150249Z 21010KT 15/02 A2987 RMK A01 T01480016  RH  041%=      5-min Rain = 0
KST4 150250Z 21010KT 15/02 A2987 RMK A01 T01470016  RH  041%=      5-min Rain = 0
KST4 150251Z 21010KT 15/02 A2987 RMK A01 T01470015  RH  041%=      5-min Rain = 0
KST4 150252Z 21010KT 15/02 A2987 RMK A01 T01470016  RH  041%=      5-min Rain = 0
KST4 150253Z 21009KT 15/02 A2987 RMK A01 T01460016  RH  041%=      5-min Rain = 0
KST4 150254Z 21009KT 14/02 A2987 RMK A01 T01430016  RH  042%=      5-min Rain = 0
KST4 150255Z 21009KT 14/02 A2987 RMK A01 T01410016  RH  043%=      5-min Rain = 0
KST4 150256Z 21009KT 14/02 A2987 RMK A01 T01390016  RH  043%=      5-min Rain = 0
KST4 150257Z 21009KT 14/02 A2987 RMK A01 T01370016  RH  044%=      5-min Rain = 0
KST4 150258Z 21009KT 14/02 A2987 RMK A01 T01350016  RH  044%=      5-min Rain = 0
KST4 150259Z 21009KT 13/02 A2987 RMK A01 T01330017  RH  045%=      5-min Rain = 0
KST4 150300Z 21008KT 13/02 A2987 RMK A01 T01320017  RH  045%=      5-min Rain = 0
KST4 150301Z 21009KT 13/02 A2987 RMK A01 T01310016  RH  046%=      5-min Rain = 0
KST4 150302Z 21009KT 13/02 A2987 RMK A01 T01300016  RH  046%=      5-min Rain = 0
KST4 150303Z 21009KT 13/02 A2987 RMK A01 T01290016  RH  046%=      5-min Rain = 0
KST4 150304Z 20010KT 13/02 A2987 RMK A01 T01290017  RH  046%=      5-min Rain = 0
KST4 150305Z 20010KT 13/02 A2987 RMK A01 T01290017  RH  047%=      5-min Rain = 0
KST4 150306Z 21009KT 13/02 A2987 RMK A01 T01300018  RH  046%=      5-min Rain = 0
KST4 150307Z 20010KT 13/02 A2987 RMK A01 T01320019  RH  046%=      5-min Rain = 0
KST4 150308Z 20010KT 13/02 A2987 RMK A01 T01340020  RH  046%=      5-min Rain = 0
KST4 150309Z 20009KT 14/02 A2987 RMK A01 T01350020  RH  046%=      5-min Rain = 0
KST4 150310Z 21009KT 13/02 A2987 RMK A01 T01340020  RH  046%=      5-min Rain = 0
KST4 150311Z 21008KT 13/02 A2987 RMK A01 T01340021  RH  046%=      5-min Rain = 0
KST4 150312Z 21008KT 13/02 A2987 RMK A01 T01310020  RH  047%=      5-min Rain = 0
KST4 150313Z 22008KT 13/02 A2987 RMK A01 T01280018  RH  047%=      5-min Rain = 0
KST4 150314Z 21008KT 13/02 A2987 RMK A01 T01250017  RH  048%=      5-min Rain = 0
KST4 150315Z 22008KT 12/02 A2987 RMK A01 T01220016  RH  048%=      5-min Rain = 0
KST4 150316Z 21008KT 12/02 A2987 RMK A01 T01200016  RH  049%=      5-min Rain = 0
KST4 150317Z 21008KT 12/02 A2987 RMK A01 T01190016  RH  049%=      5-min Rain = 0
KST4 150318Z 21009KT 12/02 A2987 RMK A01 T01170016  RH  050%=      5-min Rain = 0
KST4 150319Z 21008KT 12/02 A2987 RMK A01 T01160016  RH  050%=      5-min Rain = 0
KST4 150320Z 21009KT 12/02 A2987 RMK A01 T01160017  RH  050%=      5-min Rain = 0
KST4 150321Z 21009KT 12/02 A2988 RMK A01 T01160017  RH  051%=      5-min Rain = 0
KST4 150322Z 21010KT 12/02 A2987 RMK A01 T01190018  RH  050%=      5-min Rain = 0
KST4 150323Z 21010KT 12/02 A2987 RMK A01 T01240018  RH  048%=      5-min Rain = 0
KST4 150324Z 21010KT 13/02 A2987 RMK A01 T01270018  RH  047%=      5-min Rain = 0
KST4 150325Z 21010KT 13/02 A2987 RMK A01 T01290017  RH  047%=      5-min Rain = 0
KST4 150326Z 21010KT 13/02 A2987 RMK A01 T01290017  RH  047%=      5-min Rain = 0
KST4 150327Z 21010KT 13/02 A2987 RMK A01 T01290017  RH  046%=      5-min Rain = 0
KST4 150328Z 21009KT 13/02 A2987 RMK A01 T01300017  RH  046%=      5-min Rain = 0
KST4 150329Z 21009KT 13/02 A2987 RMK A01 T01310017  RH  046%=      5-min Rain = 0
KST4 150330Z 22009KT 13/02 A2987 RMK A01 T01300017  RH  046%=      5-min Rain = 0
KST4 150331Z 21009KT 13/02 A2987 RMK A01 T01290017  RH  046%=      5-min Rain = 0
KST4 150332Z 21008KT 13/02 A2987 RMK A01 T01280017  RH  047%=      5-min Rain = 0
KST4 150333Z 21008KT 13/02 A2987 RMK A01 T01260017  RH  047%=      5-min Rain = 0
KST4 150334Z 21009KT 13/02 A2987 RMK A01 T01250017  RH  048%=      5-min Rain = 0
KST4 150335Z 21009KT 13/02 A2987 RMK A01 T01250018  RH  048%=      5-min Rain = 0
KST4 150336Z 21009KT 12/02 A2988 RMK A01 T01240018  RH  048%=      5-min Rain = 0
KST4 150337Z 21010KT 13/02 A2987 RMK A01 T01250019  RH  048%=      5-min Rain = 0
KST4 150338Z 21010KT 13/02 A2988 RMK A01 T01270019  RH  048%=      5-min Rain = 0
KST4 150339Z 21010KT 13/02 A2987 RMK A01 T01300020  RH  047%=      5-min Rain = 0
KST4 150340Z 21010KT 13/02 A2987 RMK A01 T01330020  RH  046%=      5-min Rain = 0
KST4 150341Z 21011KT 14/02 A2987 RMK A01 T01360020  RH  045%=      5-min Rain = 0
KST4 150342Z 21011KT 14/02 A2987 RMK A01 T01390020  RH  045%=      5-min Rain = 0
KST4 150343Z 21010KT 14/02 A2987 RMK A01 T01390019  RH  044%=      5-min Rain = 0
KST4 150344Z 21011KT 14/02 A2987 RMK A01 T01400020  RH  044%=      5-min Rain = 0
KST4 150345Z 21011KT 14/02 A2988 RMK A01 T01400019  RH  044%=      5-min Rain = 0
KST4 150346Z 21011KT 14/02 A2987 RMK A01 T01400019  RH  044%=      5-min Rain = 0
KST4 150347Z 21011KT 14/02 A2987 RMK A01 T01400019  RH  044%=      5-min Rain = 0
KST4 150348Z 21010KT 14/02 A2987 RMK A01 T01400018  RH  044%=      5-min Rain = 0
KST4 150349Z 21011KT 14/02 A2987 RMK A01 T01410019  RH  044%=      5-min Rain = 0
KST4 150350Z 21011KT 14/02 A2987 RMK A01 T01410018  RH  043%=      5-min Rain = 0
KST4 150351Z 21010KT 14/02 A2987 RMK A01 T01410018  RH  043%=      5-min Rain = 0
KST4 150352Z 21011KT 14/02 A2987 RMK A01 T01410019  RH  043%=      5-min Rain = 0
KST4 150353Z 21011KT 14/02 A2987 RMK A01 T01410019  RH  044%=      5-min Rain = 0
KST4 150354Z 21011KT 14/02 A2987 RMK A01 T01410018  RH  043%=      5-min Rain = 0
KST4 150355Z 21010KT 14/02 A2987 RMK A01 T01420018  RH  043%=      5-min Rain = 0
KST4 150356Z 21010KT 14/02 A2987 RMK A01 T01410019  RH  043%=      5-min Rain = 0
KST4 150357Z 21010KT 14/02 A2987 RMK A01 T01410019  RH  044%=      5-min Rain = 0
KST4 150358Z 21010KT 14/02 A2987 RMK A01 T01400019  RH  044%=      5-min Rain = 0
KST4 150359Z 21011KT 14/02 A2987 RMK A01 T01400018  RH  044%=      5-min Rain = 0
KST4 150400Z 21010KT 14/02 A2987 RMK A01 T01410018  RH  043%=      5-min Rain = 0
KST4 150401Z 21010KT 14/02 A2987 RMK A01 T01410018  RH  043%=      5-min Rain = 0
KST4 150402Z 22010KT 14/02 A2987 RMK A01 T01410018  RH  043%=      5-min Rain = 0
KST4 150403Z 22011KT 14/02 A2987 RMK A01 T01420018  RH  043%=      5-min Rain = 0
KST4 150404Z 22010KT 14/02 A2987 RMK A01 T01430018  RH  043%=      5-min Rain = 0
KST4 150405Z 22011KT 14/02 A2987 RMK A01 T01430018  RH  043%=      5-min Rain = 0
KST4 150406Z 22010KT 14/02 A2987 RMK A01 T01420017  RH  043%=      5-min Rain = 0
KST4 150407Z 22011KT 14/02 A2987 RMK A01 T01420017  RH  043%=      5-min Rain = 0
KST4 150408Z 22011KT 14/02 A2987 RMK A01 T01420018  RH  043%=      5-min Rain = 0
KST4 150409Z 22011KT 14/02 A2987 RMK A01 T01420018  RH  043%=      5-min Rain = 0
KST4 150410Z 22011KT 14/02 A2987 RMK A01 T01420018  RH  043%=      5-min Rain = 0
KST4 150411Z 22011KT 14/02 A2987 RMK A01 T01420018  RH  043%=      5-min Rain = 0
KST4 150412Z 21012KT 14/02 A2987 RMK A01 T01420018  RH  043%=      5-min Rain = 0
KST4 150413Z 21012KT 14/02 A2987 RMK A01 T01410018  RH  043%=      5-min Rain = 0
KST4 150414Z 22010KT 14/02 A2987 RMK A01 T01420018  RH  043%=      5-min Rain = 0
KST4 150415Z 22009KT 14/02 A2987 RMK A01 T01420019  RH  043%=      5-min Rain = 0
KST4 150416Z 22010KT 14/02 A2987 RMK A01 T01400019  RH  044%=      5-min Rain = 0
KST4 150417Z 22011KT 14/02 A2987 RMK A01 T01380018  RH  044%=      5-min Rain = 0
KST4 150418Z 22012KT 14/02 A2987 RMK A01 T01380018  RH  044%=      5-min Rain = 0
KST4 150419Z 22011KT 14/02 A2987 RMK A01 T01400019  RH  044%=      5-min Rain = 0
KST4 150420Z 22011KT 14/02 A2987 RMK A01 T01420019  RH  044%=      5-min Rain = 0
KST4 150421Z 22012KT 14/02 A2987 RMK A01 T01410019  RH  044%=      5-min Rain = 0
KST4 150422Z 22013KT 14/02 A2987 RMK A01 T01410019  RH  044%=      5-min Rain = 0
KST4 150423Z 21012KT 14/02 A2987 RMK A01 T01430020  RH  043%=      5-min Rain = 0
KST4 150424Z 22013KT 15/02 A2987 RMK A01 T01460020  RH  043%=      5-min Rain = 0
KST4 150425Z 22012KT 15/02 A2987 RMK A01 T01500021  RH  042%=      5-min Rain = 0
KST4 150426Z 22013KT 15/02 A2987 RMK A01 T01530021  RH  041%=      5-min Rain = 0
KST4 150427Z 22013KT 16/02 A2987 RMK A01 T01550021  RH  040%=      5-min Rain = 0
KST4 150428Z 22013KT 16/02 A2987 RMK A01 T01570020  RH  040%=      5-min Rain = 0
KST4 150429Z 22013KT 16/02 A2988 RMK A01 T01580020  RH  039%=      5-min Rain = 0
KST4 150430Z 22013KT 16/02 A2988 RMK A01 T01610020  RH  039%=      5-min Rain = 0
KST4 150431Z 22013KT 16/02 A2988 RMK A01 T01620019  RH  038%=      5-min Rain = 0
KST4 150432Z 22013KT 16/02 A2988 RMK A01 T01630019  RH  038%=      5-min Rain = 0
KST4 150433Z 22014KT 16/02 A2988 RMK A01 T01630019  RH  038%=      5-min Rain = 0
KST4 150434Z 22015KT 17/02 A2988 RMK A01 T01650019  RH  037%=      5-min Rain = 0
KST4 150435Z 22015KT 17/02 A2988 RMK A01 T01670019  RH  037%=      5-min Rain = 0
KST4 150436Z 22013KT 17/02 A2988 RMK A01 T01680018  RH  036%=      5-min Rain = 0
KST4 150437Z 22013KT 17/02 A2988 RMK A01 T01680018  RH  036%=      5-min Rain = 0
KST4 150438Z 22014KT 17/02 A2988 RMK A01 T01690017  RH  036%=      5-min Rain = 0
KST4 150439Z 22015KT 17/02 A2988 RMK A01 T01700017  RH  036%=      5-min Rain = 0
KST4 150440Z 22014KT 17/02 A2988 RMK A01 T01720017  RH  035%=      5-min Rain = 0
KST4 150441Z 22015KT 17/02 A2988 RMK A01 T01720016  RH  035%=      5-min Rain = 0
KST4 150442Z 22015KT 17/02 A2988 RMK A01 T01730016  RH  035%=      5-min Rain = 0
KST4 150443Z 22013KT 17/02 A2988 RMK A01 T01730017  RH  035%=      5-min Rain = 0
KST4 150444Z 22014KT 17/02 A2988 RMK A01 T01710016  RH  035%=      5-min Rain = 0
KST4 150445Z 22014KT 17/02 A2988 RMK A01 T01710017  RH  035%=      5-min Rain = 0
KST4 150446Z 21014KT 17/02 A2988 RMK A01 T01700018  RH  036%=      5-min Rain = 0
KST4 150447Z 22014KT 17/02 A2988 RMK A01 T01690018  RH  036%=      5-min Rain = 0
KST4 150448Z 22013KT 17/02 A2988 RMK A01 T01680018  RH  036%=      5-min Rain = 0
KST4 150449Z 22014KT 17/02 A2988 RMK A01 T01680018  RH  036%=      5-min Rain = 0
KST4 150450Z 21014KT 17/02 A2988 RMK A01 T01670018  RH  037%=      5-min Rain = 0
KST4 150451Z 22013KT 17/02 A2988 RMK A01 T01660019  RH  037%=      5-min Rain = 0
KST4 150452Z 21014KT 17/02 A2988 RMK A01 T01660018  RH  037%=      5-min Rain = 0
KST4 150453Z 21014KT 17/02 A2988 RMK A01 T01650019  RH  037%=      5-min Rain = 0
KST4 150454Z 22013KT 17/02 A2988 RMK A01 T01650018  RH  037%=      5-min Rain = 0
KST4 150455Z 22011KT 16/02 A2988 RMK A01 T01640019  RH  038%=      5-min Rain = 0
KST4 150456Z 22012KT 16/02 A2988 RMK A01 T01630019  RH  038%=      5-min Rain = 0
KST4 150457Z 21013KT 16/02 A2988 RMK A01 T01610019  RH  038%=      5-min Rain = 0
KST4 150458Z 21013KT 16/02 A2988 RMK A01 T01600019  RH  039%=      5-min Rain = 0
KST4 150459Z 22013KT 16/02 A2988 RMK A01 T01590020  RH  039%=      5-min Rain = 0

Page generated in 0.0782 seconds.